PWSweather.com
Personal Weather Stations
Station Observations
GRACELEHAN
The Grace C. Lehan Memorial Weather Station, West Hartford, CT 06107

The Grace C. Lehan Memorial Weather StationWest Hartford, CT 06107

Lat: 41.745629, Lon: -72.7443516

Elevation: 136

Station Type: Davis Vantage Pro2 Plus

High Low Average
Temperature 41.1°F5.1°C 33.9°F1.1°C 37.1°F2.8°C
Dew Point 37.8°F3.2°C 32.9°F0.5°C 34.8°F1.6°C
Winds 19.0 mph 30.6 kmh Calm Calm 5.0 mph SSE8.0 kmh SSE
Wind Gusts 23.0 mph37.0 kmh -- 7.0 mph11.3 kmh
Humidity 97% 82% 91%
Pressure 30.02 in1016.6 mb 29.72 in1006.4 mb -
Precipitation 0.00 in0.0 mm - -
Hour Temp Dew Point Humidity Winds Wind Gusts Pressure Precip Precip Rate Daily Precip Total
12:00 AM 34.1°F1.2°C 33.1°F0.6°C 96% 3.0 mph N4.8 kmh N 4.0 mph6.4 kmh 29.82 in1009.8 mb 0.03 in0.8 mm 0.00 in0.0 mm 0.03 in0.8 mm
12:02 AM 34.1°F1.2°C 33.1°F0.6°C 96% 3.0 mph N4.8 kmh N 5.0 mph8.0 kmh 29.82 in1009.8 mb 0.03 in0.8 mm 0.00 in0.0 mm 0.03 in0.8 mm
12:04 AM 34.1°F1.2°C 33.1°F0.6°C 96% 4.0 mph N6.4 kmh N 4.0 mph6.4 kmh 29.82 in1009.8 mb 0.03 in0.8 mm 0.00 in0.0 mm 0.03 in0.8 mm
12:06 AM 34.1°F1.2°C 33.1°F0.6°C 96% 4.0 mph N6.4 kmh N 5.0 mph8.0 kmh 29.82 in1009.8 mb 0.04 in1.0 mm 0.30 in7.6 mm 0.04 in1.0 mm
12:08 AM 34.1°F1.2°C 33.1°F0.6°C 96% 3.0 mph N4.8 kmh N 4.0 mph6.4 kmh 29.82 in1009.8 mb 0.04 in1.0 mm 0.00 in0.0 mm 0.04 in1.0 mm
12:10 AM 34.1°F1.2°C 33.1°F0.6°C 96% 1.0 mph NNE1.6 kmh NNE 3.0 mph4.8 kmh 29.82 in1009.8 mb 0.04 in1.0 mm 0.00 in0.0 mm 0.04 in1.0 mm
12:12 AM 34.1°F1.2°C 33.1°F0.6°C 96% 2.0 mph N3.2 kmh N 3.0 mph4.8 kmh 29.81 in1009.5 mb 0.04 in1.0 mm 0.00 in0.0 mm 0.04 in1.0 mm
12:14 AM 34.1°F1.2°C 33.1°F0.6°C 96% 2.0 mph N3.2 kmh N 2.0 mph3.2 kmh 29.81 in1009.5 mb 0.04 in1.0 mm 0.00 in0.0 mm 0.04 in1.0 mm
12:16 AM 34.1°F1.2°C 33.1°F0.6°C 96% 2.0 mph N3.2 kmh N 2.0 mph3.2 kmh 29.81 in1009.5 mb 0.04 in1.0 mm 0.00 in0.0 mm 0.04 in1.0 mm
12:18 AM 34.1°F1.2°C 33.1°F0.6°C 96% 4.0 mph NE6.4 kmh NE 4.0 mph6.4 kmh 29.81 in1009.5 mb 0.04 in1.0 mm 0.00 in0.0 mm 0.04 in1.0 mm
12:20 AM 34.1°F1.2°C 33.1°F0.6°C 96% 2.0 mph NNE3.2 kmh NNE 3.0 mph4.8 kmh 29.81 in1009.5 mb 0.05 in1.3 mm 0.30 in7.6 mm 0.05 in1.3 mm
12:22 AM 34.1°F1.2°C 33.1°F0.6°C 96% 3.0 mph N4.8 kmh N 4.0 mph6.4 kmh 29.81 in1009.5 mb 0.05 in1.3 mm 0.00 in0.0 mm 0.05 in1.3 mm
12:24 AM 34.1°F1.2°C 33.1°F0.6°C 96% 2.0 mph NNE3.2 kmh NNE 4.0 mph6.4 kmh 29.81 in1009.5 mb 0.05 in1.3 mm 0.00 in0.0 mm 0.05 in1.3 mm
12:26 AM 34.1°F1.2°C 33.1°F0.6°C 96% 3.0 mph NNE4.8 kmh NNE 3.0 mph4.8 kmh 29.81 in1009.5 mb 0.05 in1.3 mm 0.00 in0.0 mm 0.05 in1.3 mm
12:28 AM 34.2°F1.2°C 33.2°F0.7°C 96% 4.0 mph NE6.4 kmh NE 4.0 mph6.4 kmh 29.80 in1009.1 mb 0.05 in1.3 mm 0.00 in0.0 mm 0.05 in1.3 mm
12:30 AM 34.2°F1.2°C 33.2°F0.7°C 96% 5.0 mph NE8.0 kmh NE 6.0 mph9.7 kmh 29.81 in1009.5 mb 0.04 in1.0 mm 0.00 in0.0 mm 0.05 in1.3 mm
12:32 AM 34.2°F1.2°C 33.2°F0.7°C 96% 4.0 mph NE6.4 kmh NE 6.0 mph9.7 kmh 29.80 in1009.1 mb 0.04 in1.0 mm 0.00 in0.0 mm 0.05 in1.3 mm
12:34 AM 34.2°F1.2°C 33.2°F0.7°C 96% 4.0 mph NE6.4 kmh NE 4.0 mph6.4 kmh 29.80 in1009.1 mb 0.04 in1.0 mm 0.00 in0.0 mm 0.05 in1.3 mm
12:36 AM 34.2°F1.2°C 33.2°F0.7°C 96% 2.0 mph NNE3.2 kmh NNE 4.0 mph6.4 kmh 29.80 in1009.1 mb 0.04 in1.0 mm 0.00 in0.0 mm 0.05 in1.3 mm
12:38 AM 34.2°F1.2°C 33.2°F0.7°C 96% 3.0 mph NNE4.8 kmh NNE 5.0 mph8.0 kmh 29.80 in1009.1 mb 0.03 in0.8 mm 0.00 in0.0 mm 0.05 in1.3 mm
12:40 AM 34.2°F1.2°C 33.2°F0.7°C 96% 4.0 mph NNE6.4 kmh NNE 5.0 mph8.0 kmh 29.79 in1008.8 mb 0.04 in1.0 mm 0.30 in7.6 mm 0.06 in1.5 mm
12:42 AM 34.2°F1.2°C 33.2°F0.7°C 96% 4.0 mph NE6.4 kmh NE 5.0 mph8.0 kmh 29.79 in1008.8 mb 0.04 in1.0 mm 0.00 in0.0 mm 0.06 in1.5 mm
12:44 AM 34.2°F1.2°C 33.2°F0.7°C 96% 3.0 mph NE4.8 kmh NE 4.0 mph6.4 kmh 29.79 in1008.8 mb 0.04 in1.0 mm 0.00 in0.0 mm 0.06 in1.5 mm
12:46 AM 34.2°F1.2°C 33.2°F0.7°C 96% 3.0 mph NE4.8 kmh NE 4.0 mph6.4 kmh 29.79 in1008.8 mb 0.05 in1.3 mm 0.30 in7.6 mm 0.07 in1.8 mm
12:48 AM 34.2°F1.2°C 33.2°F0.7°C 96% 4.0 mph N6.4 kmh N 5.0 mph8.0 kmh 29.79 in1008.8 mb 0.05 in1.3 mm 0.00 in0.0 mm 0.07 in1.8 mm
12:50 AM 34.1°F1.2°C 33.1°F0.6°C 96% 2.0 mph N3.2 kmh N 4.0 mph6.4 kmh 29.79 in1008.8 mb 0.05 in1.3 mm 0.00 in0.0 mm 0.07 in1.8 mm
12:52 AM 34.2°F1.2°C 33.2°F0.7°C 96% 3.0 mph N4.8 kmh N 5.0 mph8.0 kmh 29.79 in1008.8 mb 0.04 in1.0 mm 0.00 in0.0 mm 0.07 in1.8 mm
12:54 AM 34.2°F1.2°C 33.2°F0.7°C 96% 7.0 mph N11.3 kmh N 7.0 mph11.3 kmh 29.79 in1008.8 mb 0.05 in1.3 mm 0.30 in7.6 mm 0.08 in2.0 mm
12:56 AM 34.2°F1.2°C 33.2°F0.7°C 96% 5.0 mph NNE8.0 kmh NNE 5.0 mph8.0 kmh 29.79 in1008.8 mb 0.05 in1.3 mm 0.00 in0.0 mm 0.08 in2.0 mm
12:58 AM 34.1°F1.2°C 33.1°F0.6°C 96% 3.0 mph NNE4.8 kmh NNE 5.0 mph8.0 kmh 29.79 in1008.8 mb 0.05 in1.3 mm 0.00 in0.0 mm 0.08 in2.0 mm
01:00 AM 34.1°F1.2°C 33.1°F0.6°C 96% 3.0 mph NE4.8 kmh NE 3.0 mph4.8 kmh 29.79 in1008.8 mb 0.05 in1.3 mm 0.00 in0.0 mm 0.08 in2.0 mm
01:02 AM 34.1°F1.2°C 33.1°F0.6°C 96% 5.0 mph NE8.0 kmh NE 5.0 mph8.0 kmh 29.79 in1008.8 mb 0.05 in1.3 mm 0.00 in0.0 mm 0.08 in2.0 mm
01:04 AM 34.1°F1.2°C 33.1°F0.6°C 96% 3.0 mph N4.8 kmh N 5.0 mph8.0 kmh 29.79 in1008.8 mb 0.05 in1.3 mm 0.00 in0.0 mm 0.08 in2.0 mm
01:06 AM 34.1°F1.2°C 33.1°F0.6°C 96% 4.0 mph N6.4 kmh N 4.0 mph6.4 kmh 29.78 in1008.5 mb 0.04 in1.0 mm 0.00 in0.0 mm 0.08 in2.0 mm
01:08 AM 34.1°F1.2°C 33.1°F0.6°C 96% 5.0 mph NNE8.0 kmh NNE 5.0 mph8.0 kmh 29.78 in1008.5 mb 0.04 in1.0 mm 0.00 in0.0 mm 0.08 in2.0 mm
01:10 AM 34.1°F1.2°C 33.1°F0.6°C 96% 3.0 mph N4.8 kmh N 7.0 mph11.3 kmh 29.78 in1008.5 mb 0.04 in1.0 mm 0.00 in0.0 mm 0.08 in2.0 mm
01:12 AM 34.1°F1.2°C 33.1°F0.6°C 96% 3.0 mph NE4.8 kmh NE 6.0 mph9.7 kmh 29.77 in1008.1 mb 0.05 in1.3 mm 0.30 in7.6 mm 0.09 in2.3 mm
01:14 AM 34.1°F1.2°C 33.1°F0.6°C 96% 6.0 mph NE9.7 kmh NE 6.0 mph9.7 kmh 29.78 in1008.5 mb 0.05 in1.3 mm 0.00 in0.0 mm 0.09 in2.3 mm
01:16 AM 34.1°F1.2°C 33.1°F0.6°C 96% 7.0 mph NNW11.3 kmh NNW 7.0 mph11.3 kmh 29.77 in1008.1 mb 0.05 in1.3 mm 0.00 in0.0 mm 0.09 in2.3 mm
01:18 AM 34.1°F1.2°C 33.1°F0.6°C 96% 6.0 mph NE9.7 kmh NE 6.0 mph9.7 kmh 29.77 in1008.1 mb 0.05 in1.3 mm 0.00 in0.0 mm 0.09 in2.3 mm
01:20 AM 34.1°F1.2°C 33.1°F0.6°C 96% 6.0 mph NE9.7 kmh NE 7.0 mph11.3 kmh 29.77 in1008.1 mb 0.05 in1.3 mm 0.00 in0.0 mm 0.09 in2.3 mm
01:22 AM 34.1°F1.2°C 33.1°F0.6°C 96% 2.0 mph ENE3.2 kmh ENE 5.0 mph8.0 kmh 29.77 in1008.1 mb 0.04 in1.0 mm 0.00 in0.0 mm 0.09 in2.3 mm
01:24 AM 34.0°F1.1°C 33.0°F0.6°C 96% 3.0 mph N4.8 kmh N 4.0 mph6.4 kmh 29.77 in1008.1 mb 0.04 in1.0 mm 0.00 in0.0 mm 0.09 in2.3 mm
01:26 AM 34.0°F1.1°C 33.0°F0.6°C 96% 3.0 mph NE4.8 kmh NE 5.0 mph8.0 kmh 29.77 in1008.1 mb 0.04 in1.0 mm 0.00 in0.0 mm 0.09 in2.3 mm
01:28 AM 34.0°F1.1°C 33.0°F0.6°C 96% 4.0 mph N6.4 kmh N 7.0 mph11.3 kmh 29.77 in1008.1 mb 0.04 in1.0 mm 0.00 in0.0 mm 0.09 in2.3 mm
01:30 AM 33.9°F1.1°C 32.9°F0.5°C 96% 5.0 mph NE8.0 kmh NE 6.0 mph9.7 kmh 29.77 in1008.1 mb 0.04 in1.0 mm 0.00 in0.0 mm 0.09 in2.3 mm
01:32 AM 33.9°F1.1°C 32.9°F0.5°C 96% 3.0 mph NE4.8 kmh NE 5.0 mph8.0 kmh 29.77 in1008.1 mb 0.04 in1.0 mm 0.00 in0.0 mm 0.09 in2.3 mm
01:34 AM 33.9°F1.1°C 32.9°F0.5°C 96% 4.0 mph N6.4 kmh N 4.0 mph6.4 kmh 29.77 in1008.1 mb 0.04 in1.0 mm 0.00 in0.0 mm 0.09 in2.3 mm
01:36 AM 33.9°F1.1°C 32.9°F0.5°C 96% 1.0 mph NE1.6 kmh NE 4.0 mph6.4 kmh 29.77 in1008.1 mb 0.04 in1.0 mm 0.00 in0.0 mm 0.09 in2.3 mm
01:38 AM 34.0°F1.1°C 33.0°F0.6°C 96% 4.0 mph ENE6.4 kmh ENE 4.0 mph6.4 kmh 29.76 in1007.8 mb 0.04 in1.0 mm 0.00 in0.0 mm 0.09 in2.3 mm
01:40 AM 34.0°F1.1°C 33.0°F0.6°C 96% 3.0 mph NNE4.8 kmh NNE 3.0 mph4.8 kmh 29.77 in1008.1 mb 0.03 in0.8 mm 0.00 in0.0 mm 0.09 in2.3 mm
01:42 AM 34.0°F1.1°C 33.0°F0.6°C 96% 4.0 mph NNE6.4 kmh NNE 4.0 mph6.4 kmh 29.76 in1007.8 mb 0.03 in0.8 mm 0.00 in0.0 mm 0.09 in2.3 mm
01:44 AM 34.0°F1.1°C 33.0°F0.6°C 96% 5.0 mph NE8.0 kmh NE 5.0 mph8.0 kmh 29.76 in1007.8 mb 0.03 in0.8 mm 0.00 in0.0 mm 0.09 in2.3 mm
01:46 AM 34.0°F1.1°C 33.0°F0.6°C 96% 2.0 mph N3.2 kmh N 3.0 mph4.8 kmh 29.76 in1007.8 mb 0.02 in0.5 mm 0.00 in0.0 mm 0.09 in2.3 mm
01:48 AM 34.0°F1.1°C 33.0°F0.6°C 96% 4.0 mph NNE6.4 kmh NNE 5.0 mph8.0 kmh 29.77 in1008.1 mb 0.02 in0.5 mm 0.00 in0.0 mm 0.09 in2.3 mm
01:50 AM 34.0°F1.1°C 33.0°F0.6°C 96% 5.0 mph NNE8.0 kmh NNE 7.0 mph11.3 kmh 29.77 in1008.1 mb 0.02 in0.5 mm 0.00 in0.0 mm 0.09 in2.3 mm
01:52 AM 34.0°F1.1°C 33.0°F0.6°C 96% 3.0 mph NE4.8 kmh NE 6.0 mph9.7 kmh 29.77 in1008.1 mb 0.02 in0.5 mm 0.00 in0.0 mm 0.09 in2.3 mm
01:54 AM 34.0°F1.1°C 33.0°F0.6°C 96% 3.0 mph NNE4.8 kmh NNE 3.0 mph4.8 kmh 29.77 in1008.1 mb 0.01 in0.3 mm 0.00 in0.0 mm 0.09 in2.3 mm
01:56 AM 34.1°F1.2°C 33.1°F0.6°C 96% 6.0 mph NNE9.7 kmh NNE 6.0 mph9.7 kmh 29.77 in1008.1 mb 0.01 in0.3 mm 0.00 in0.0 mm 0.09 in2.3 mm
01:58 AM 34.1°F1.2°C 33.1°F0.6°C 96% 4.0 mph NNE6.4 kmh NNE 4.0 mph6.4 kmh 29.77 in1008.1 mb 0.01 in0.3 mm 0.00 in0.0 mm 0.09 in2.3 mm
02:00 AM 34.1°F1.2°C 33.1°F0.6°C 96% 5.0 mph N8.0 kmh N 6.0 mph9.7 kmh 29.77 in1008.1 mb 0.01 in0.3 mm 0.00 in0.0 mm 0.09 in2.3 mm
02:02 AM 34.1°F1.2°C 33.1°F0.6°C 96% 5.0 mph NNE8.0 kmh NNE 5.0 mph8.0 kmh 29.76 in1007.8 mb 0.01 in0.3 mm 0.00 in0.0 mm 0.09 in2.3 mm
02:04 AM 34.1°F1.2°C 33.1°F0.6°C 96% 4.0 mph NW6.4 kmh NW 5.0 mph8.0 kmh 29.76 in1007.8 mb 0.01 in0.3 mm 0.00 in0.0 mm 0.09 in2.3 mm
02:06 AM 34.1°F1.2°C 33.1°F0.6°C 96% 5.0 mph NNW8.0 kmh NNW 5.0 mph8.0 kmh 29.77 in1008.1 mb 0.01 in0.3 mm 0.00 in0.0 mm 0.09 in2.3 mm
02:08 AM 34.1°F1.2°C 33.1°F0.6°C 96% 4.0 mph NNW6.4 kmh NNW 7.0 mph11.3 kmh 29.77 in1008.1 mb 0.01 in0.3 mm 0.00 in0.0 mm 0.09 in2.3 mm
02:10 AM 34.1°F1.2°C 33.1°F0.6°C 96% 4.0 mph N6.4 kmh N 10.0 mph16.1 kmh 29.76 in1007.8 mb 0.01 in0.3 mm 0.00 in0.0 mm 0.09 in2.3 mm
02:12 AM 34.2°F1.2°C 33.2°F0.7°C 96% 4.0 mph NE6.4 kmh NE 7.0 mph11.3 kmh 29.76 in1007.8 mb 0.01 in0.3 mm 0.00 in0.0 mm 0.09 in2.3 mm
02:14 AM 34.2°F1.2°C 33.2°F0.7°C 96% 6.0 mph NNE9.7 kmh NNE 6.0 mph9.7 kmh 29.76 in1007.8 mb 0.01 in0.3 mm 0.00 in0.0 mm 0.09 in2.3 mm
02:16 AM 34.2°F1.2°C 33.2°F0.7°C 96% 2.0 mph NE3.2 kmh NE 5.0 mph8.0 kmh 29.76 in1007.8 mb 0.01 in0.3 mm 0.00 in0.0 mm 0.09 in2.3 mm
02:18 AM 34.1°F1.2°C 33.1°F0.6°C 96% 5.0 mph E8.0 kmh E 10.0 mph16.1 kmh 29.75 in1007.5 mb 0.01 in0.3 mm 0.00 in0.0 mm 0.09 in2.3 mm
02:20 AM 34.1°F1.2°C 33.1°F0.6°C 96% 4.0 mph NE6.4 kmh NE 6.0 mph9.7 kmh 29.75 in1007.5 mb 0.01 in0.3 mm 0.00 in0.0 mm 0.09 in2.3 mm
02:22 AM 34.1°F1.2°C 33.1°F0.6°C 96% 4.0 mph NNW6.4 kmh NNW 5.0 mph8.0 kmh 29.75 in1007.5 mb 0.01 in0.3 mm 0.00 in0.0 mm 0.09 in2.3 mm
02:24 AM 34.1°F1.2°C 33.1°F0.6°C 96% 10.0 mph N16.1 kmh N 10.0 mph16.1 kmh 29.75 in1007.5 mb 0.01 in0.3 mm 0.00 in0.0 mm 0.09 in2.3 mm
02:26 AM 34.1°F1.2°C 33.1°F0.6°C 96% 5.0 mph N8.0 kmh N 5.0 mph8.0 kmh 29.75 in1007.5 mb 0.01 in0.3 mm 0.00 in0.0 mm 0.09 in2.3 mm
02:28 AM 34.1°F1.2°C 33.1°F0.6°C 96% 7.0 mph NNE11.3 kmh NNE 7.0 mph11.3 kmh 29.75 in1007.5 mb 0.01 in0.3 mm 0.00 in0.0 mm 0.09 in2.3 mm
02:30 AM 34.1°F1.2°C 33.1°F0.6°C 96% 4.0 mph N6.4 kmh N 5.0 mph8.0 kmh 29.75 in1007.5 mb 0.01 in0.3 mm 0.00 in0.0 mm 0.09 in2.3 mm
02:32 AM 34.1°F1.2°C 33.1°F0.6°C 96% 6.0 mph N9.7 kmh N 6.0 mph9.7 kmh 29.75 in1007.5 mb 0.01 in0.3 mm 0.00 in0.0 mm 0.09 in2.3 mm
02:34 AM 34.1°F1.2°C 33.1°F0.6°C 96% 3.0 mph NNE4.8 kmh NNE 3.0 mph4.8 kmh 29.75 in1007.5 mb 0.01 in0.3 mm 0.00 in0.0 mm 0.09 in2.3 mm
02:36 AM 34.1°F1.2°C 33.1°F0.6°C 96% 7.0 mph NNE11.3 kmh NNE 7.0 mph11.3 kmh 29.75 in1007.5 mb 0.01 in0.3 mm 0.00 in0.0 mm 0.09 in2.3 mm
02:38 AM 34.1°F1.2°C 33.1°F0.6°C 96% 6.0 mph NE9.7 kmh NE 6.0 mph9.7 kmh 29.75 in1007.5 mb 0.01 in0.3 mm 0.00 in0.0 mm 0.09 in2.3 mm
02:40 AM 34.1°F1.2°C 33.1°F0.6°C 96% 3.0 mph N4.8 kmh N 4.0 mph6.4 kmh 29.75 in1007.5 mb 0.01 in0.3 mm 0.00 in0.0 mm 0.09 in2.3 mm
02:42 AM 34.1°F1.2°C 33.1°F0.6°C 96% 6.0 mph NE9.7 kmh NE 7.0 mph11.3 kmh 29.74 in1007.1 mb 0.01 in0.3 mm 0.00 in0.0 mm 0.09 in2.3 mm
02:44 AM 34.1°F1.2°C 33.1°F0.6°C 96% 5.0 mph NNE8.0 kmh NNE 6.0 mph9.7 kmh 29.74 in1007.1 mb 0.01 in0.3 mm 0.00 in0.0 mm 0.09 in2.3 mm
02:46 AM 34.1°F1.2°C 33.1°F0.6°C 96% 4.0 mph NE6.4 kmh NE 4.0 mph6.4 kmh 29.74 in1007.1 mb 0.01 in0.3 mm 0.00 in0.0 mm 0.09 in2.3 mm
02:48 AM 34.1°F1.2°C 33.1°F0.6°C 96% 4.0 mph NNE6.4 kmh NNE 6.0 mph9.7 kmh 29.74 in1007.1 mb 0.01 in0.3 mm 0.00 in0.0 mm 0.09 in2.3 mm
02:50 AM 34.1°F1.2°C 33.1°F0.6°C 96% 7.0 mph NE11.3 kmh NE 9.0 mph14.5 kmh 29.74 in1007.1 mb 0.01 in0.3 mm 0.00 in0.0 mm 0.09 in2.3 mm
02:52 AM 34.1°F1.2°C 33.1°F0.6°C 96% 5.0 mph NE8.0 kmh NE 7.0 mph11.3 kmh 29.74 in1007.1 mb 0.01 in0.3 mm 0.00 in0.0 mm 0.09 in2.3 mm
02:54 AM 34.1°F1.2°C 33.1°F0.6°C 96% 6.0 mph N9.7 kmh N 11.0 mph17.7 kmh 29.74 in1007.1 mb 0.02 in0.5 mm 0.30 in7.6 mm 0.10 in2.5 mm
02:56 AM 34.1°F1.2°C 33.1°F0.6°C 96% 3.0 mph NE4.8 kmh NE 6.0 mph9.7 kmh 29.74 in1007.1 mb 0.02 in0.5 mm 0.00 in0.0 mm 0.10 in2.5 mm
02:58 AM 34.1°F1.2°C 33.1°F0.6°C 96% 6.0 mph NE9.7 kmh NE 10.0 mph16.1 kmh 29.73 in1006.8 mb 0.02 in0.5 mm 0.00 in0.0 mm 0.10 in2.5 mm
03:00 AM 34.2°F1.2°C 33.2°F0.7°C 96% 9.0 mph E14.5 kmh E 9.0 mph14.5 kmh 29.73 in1006.8 mb 0.02 in0.5 mm 0.00 in0.0 mm 0.10 in2.5 mm
03:02 AM 34.2°F1.2°C 33.2°F0.7°C 96% 2.0 mph NE3.2 kmh NE 4.0 mph6.4 kmh 29.73 in1006.8 mb 0.02 in0.5 mm 0.00 in0.0 mm 0.10 in2.5 mm
03:04 AM 34.2°F1.2°C 33.2°F0.7°C 96% 5.0 mph NNE8.0 kmh NNE 6.0 mph9.7 kmh 29.73 in1006.8 mb 0.02 in0.5 mm 0.00 in0.0 mm 0.10 in2.5 mm
03:06 AM 34.2°F1.2°C 33.2°F0.7°C 96% 3.0 mph NNE4.8 kmh NNE 11.0 mph17.7 kmh 29.73 in1006.8 mb 0.02 in0.5 mm 0.00 in0.0 mm 0.10 in2.5 mm
03:08 AM 34.2°F1.2°C 33.2°F0.7°C 96% 4.0 mph NNE6.4 kmh NNE 6.0 mph9.7 kmh 29.73 in1006.8 mb 0.02 in0.5 mm 0.00 in0.0 mm 0.10 in2.5 mm
03:10 AM 34.2°F1.2°C 33.2°F0.7°C 96% 6.0 mph NNE9.7 kmh NNE 10.0 mph16.1 kmh 29.73 in1006.8 mb 0.02 in0.5 mm 0.00 in0.0 mm 0.10 in2.5 mm
03:12 AM 34.2°F1.2°C 33.2°F0.7°C 96% 6.0 mph NNE9.7 kmh NNE 6.0 mph9.7 kmh 29.73 in1006.8 mb 0.02 in0.5 mm 0.00 in0.0 mm 0.10 in2.5 mm
03:14 AM 34.2°F1.2°C 33.2°F0.7°C 96% 2.0 mph ENE3.2 kmh ENE 5.0 mph8.0 kmh 29.73 in1006.8 mb 0.01 in0.3 mm 0.00 in0.0 mm 0.10 in2.5 mm
03:16 AM 34.2°F1.2°C 33.2°F0.7°C 96% 4.0 mph NNE6.4 kmh NNE 6.0 mph9.7 kmh 29.73 in1006.8 mb 0.01 in0.3 mm 0.00 in0.0 mm 0.10 in2.5 mm
03:18 AM 34.2°F1.2°C 33.2°F0.7°C 96% 6.0 mph NE9.7 kmh NE 7.0 mph11.3 kmh 29.72 in1006.4 mb 0.01 in0.3 mm 0.00 in0.0 mm 0.10 in2.5 mm
03:20 AM 34.2°F1.2°C 33.2°F0.7°C 96% 4.0 mph NE6.4 kmh NE 5.0 mph8.0 kmh 29.72 in1006.4 mb 0.01 in0.3 mm 0.00 in0.0 mm 0.10 in2.5 mm
03:22 AM 34.2°F1.2°C 33.2°F0.7°C 96% 7.0 mph N11.3 kmh N 10.0 mph16.1 kmh 29.72 in1006.4 mb 0.01 in0.3 mm 0.00 in0.0 mm 0.10 in2.5 mm
03:24 AM 34.2°F1.2°C 33.2°F0.7°C 96% 7.0 mph NNE11.3 kmh NNE 7.0 mph11.3 kmh 29.72 in1006.4 mb 0.01 in0.3 mm 0.00 in0.0 mm 0.10 in2.5 mm
03:26 AM 34.1°F1.2°C 33.1°F0.6°C 96% 5.0 mph NE8.0 kmh NE 9.0 mph14.5 kmh 29.72 in1006.4 mb 0.01 in0.3 mm 0.00 in0.0 mm 0.10 in2.5 mm
03:28 AM 34.2°F1.2°C 33.2°F0.7°C 96% 5.0 mph N8.0 kmh N 9.0 mph14.5 kmh 29.72 in1006.4 mb 0.01 in0.3 mm 0.00 in0.0 mm 0.10 in2.5 mm
03:30 AM 34.1°F1.2°C 33.1°F0.6°C 96% 5.0 mph NE8.0 kmh NE 5.0 mph8.0 kmh 29.72 in1006.4 mb 0.01 in0.3 mm 0.00 in0.0 mm 0.10 in2.5 mm
03:32 AM 34.2°F1.2°C 33.2°F0.7°C 96% 3.0 mph NNE4.8 kmh NNE 10.0 mph16.1 kmh 29.72 in1006.4 mb 0.01 in0.3 mm 0.00 in0.0 mm 0.10 in2.5 mm
03:34 AM 34.2°F1.2°C 33.2°F0.7°C 96% 4.0 mph N6.4 kmh N 4.0 mph6.4 kmh 29.72 in1006.4 mb 0.01 in0.3 mm 0.00 in0.0 mm 0.10 in2.5 mm
03:36 AM 34.2°F1.2°C 33.2°F0.7°C 96% 9.0 mph ENE14.5 kmh ENE 9.0 mph14.5 kmh 29.73 in1006.8 mb 0.01 in0.3 mm 0.00 in0.0 mm 0.10 in2.5 mm
03:38 AM 34.2°F1.2°C 33.2°F0.7°C 96% 9.0 mph N14.5 kmh N 9.0 mph14.5 kmh 29.73 in1006.8 mb 0.01 in0.3 mm 0.00 in0.0 mm 0.10 in2.5 mm
03:40 AM 34.2°F1.2°C 33.2°F0.7°C 96% 6.0 mph N9.7 kmh N 6.0 mph9.7 kmh 29.73 in1006.8 mb 0.01 in0.3 mm 0.00 in0.0 mm 0.10 in2.5 mm
03:42 AM 34.3°F1.3°C 33.3°F0.7°C 96% 7.0 mph N11.3 kmh N 7.0 mph11.3 kmh 29.73 in1006.8 mb 0.01 in0.3 mm 0.00 in0.0 mm 0.10 in2.5 mm
03:44 AM 34.3°F1.3°C 33.3°F0.7°C 96% 7.0 mph N11.3 kmh N 11.0 mph17.7 kmh 29.73 in1006.8 mb 0.01 in0.3 mm 0.00 in0.0 mm 0.10 in2.5 mm
03:46 AM 34.3°F1.3°C 33.3°F0.7°C 96% 6.0 mph N9.7 kmh N 9.0 mph14.5 kmh 29.73 in1006.8 mb 0.01 in0.3 mm 0.00 in0.0 mm 0.10 in2.5 mm
03:48 AM 34.3°F1.3°C 33.3°F0.7°C 96% 12.0 mph N19.3 kmh N 12.0 mph19.3 kmh 29.73 in1006.8 mb 0.01 in0.3 mm 0.00 in0.0 mm 0.10 in2.5 mm
03:50 AM 34.3°F1.3°C 33.3°F0.7°C 96% 5.0 mph N8.0 kmh N 7.0 mph11.3 kmh 29.73 in1006.8 mb 0.02 in0.5 mm 0.30 in7.6 mm 0.11 in2.8 mm
03:52 AM 34.3°F1.3°C 33.3°F0.7°C 96% 7.0 mph N11.3 kmh N 8.0 mph12.9 kmh 29.73 in1006.8 mb 0.02 in0.5 mm 0.00 in0.0 mm 0.11 in2.8 mm
03:54 AM 34.3°F1.3°C 33.3°F0.7°C 96% 5.0 mph N8.0 kmh N 10.0 mph16.1 kmh 29.73 in1006.8 mb 0.01 in0.3 mm 0.00 in0.0 mm 0.11 in2.8 mm
03:56 AM 34.3°F1.3°C 33.3°F0.7°C 96% 7.0 mph N11.3 kmh N 13.0 mph20.9 kmh 29.72 in1006.4 mb 0.01 in0.3 mm 0.00 in0.0 mm 0.11 in2.8 mm
03:58 AM 34.3°F1.3°C 33.3°F0.7°C 96% 6.0 mph NE9.7 kmh NE 10.0 mph16.1 kmh 29.73 in1006.8 mb 0.01 in0.3 mm 0.00 in0.0 mm 0.11 in2.8 mm
04:00 AM 34.3°F1.3°C 33.3°F0.7°C 96% 5.0 mph NNE8.0 kmh NNE 5.0 mph8.0 kmh 29.73 in1006.8 mb 0.01 in0.3 mm 0.00 in0.0 mm 0.11 in2.8 mm
04:02 AM 34.3°F1.3°C 33.3°F0.7°C 96% 4.0 mph NNE6.4 kmh NNE 7.0 mph11.3 kmh 29.72 in1006.4 mb 0.01 in0.3 mm 0.00 in0.0 mm 0.11 in2.8 mm
04:04 AM 34.3°F1.3°C 33.3°F0.7°C 96% 4.0 mph N6.4 kmh N 6.0 mph9.7 kmh 29.72 in1006.4 mb 0.01 in0.3 mm 0.00 in0.0 mm 0.11 in2.8 mm
04:06 AM 34.3°F1.3°C 33.3°F0.7°C 96% 6.0 mph N9.7 kmh N 11.0 mph17.7 kmh 29.72 in1006.4 mb 0.01 in0.3 mm 0.00 in0.0 mm 0.11 in2.8 mm
04:08 AM 34.3°F1.3°C 33.3°F0.7°C 96% 6.0 mph NNE9.7 kmh NNE 9.0 mph14.5 kmh 29.72 in1006.4 mb 0.01 in0.3 mm 0.00 in0.0 mm 0.11 in2.8 mm
04:10 AM 34.3°F1.3°C 33.3°F0.7°C 96% 6.0 mph N9.7 kmh N 6.0 mph9.7 kmh 29.72 in1006.4 mb 0.01 in0.3 mm 0.00 in0.0 mm 0.11 in2.8 mm
04:12 AM 34.3°F1.3°C 33.3°F0.7°C 96% 1.0 mph NNE1.6 kmh NNE 7.0 mph11.3 kmh 29.72 in1006.4 mb 0.01 in0.3 mm 0.00 in0.0 mm 0.11 in2.8 mm
04:14 AM 34.3°F1.3°C 33.3°F0.7°C 96% 4.0 mph N6.4 kmh N 10.0 mph16.1 kmh 29.72 in1006.4 mb 0.01 in0.3 mm 0.00 in0.0 mm 0.11 in2.8 mm
04:16 AM 34.3°F1.3°C 33.3°F0.7°C 96% 3.0 mph NNE4.8 kmh NNE 3.0 mph4.8 kmh 29.72 in1006.4 mb 0.01 in0.3 mm 0.00 in0.0 mm 0.11 in2.8 mm
04:18 AM 34.3°F1.3°C 33.3°F0.7°C 96% 4.0 mph N6.4 kmh N 9.0 mph14.5 kmh 29.72 in1006.4 mb 0.01 in0.3 mm 0.00 in0.0 mm 0.11 in2.8 mm
04:20 AM 34.3°F1.3°C 33.3°F0.7°C 96% 6.0 mph NNE9.7 kmh NNE 10.0 mph16.1 kmh 29.72 in1006.4 mb 0.01 in0.3 mm 0.00 in0.0 mm 0.11 in2.8 mm
04:22 AM 34.3°F1.3°C 33.3°F0.7°C 96% 3.0 mph NE4.8 kmh NE 7.0 mph11.3 kmh 29.72 in1006.4 mb 0.01 in0.3 mm 0.00 in0.0 mm 0.11 in2.8 mm
04:24 AM 34.3°F1.3°C 33.3°F0.7°C 96% 5.0 mph NE8.0 kmh NE 10.0 mph16.1 kmh 29.72 in1006.4 mb 0.01 in0.3 mm 0.00 in0.0 mm 0.11 in2.8 mm
04:26 AM 34.3°F1.3°C 33.3°F0.7°C 96% 5.0 mph NE8.0 kmh NE 10.0 mph16.1 kmh 29.72 in1006.4 mb 0.01 in0.3 mm 0.00 in0.0 mm 0.11 in2.8 mm
04:28 AM 34.3°F1.3°C 33.3°F0.7°C 96% 9.0 mph NW14.5 kmh NW 10.0 mph16.1 kmh 29.72 in1006.4 mb 0.01 in0.3 mm 0.00 in0.0 mm 0.11 in2.8 mm
04:30 AM 34.3°F1.3°C 33.3°F0.7°C 96% 3.0 mph NNE4.8 kmh NNE 9.0 mph14.5 kmh 29.73 in1006.8 mb 0.01 in0.3 mm 0.00 in0.0 mm 0.11 in2.8 mm
04:32 AM 34.3°F1.3°C 33.3°F0.7°C 96% 6.0 mph N9.7 kmh N 7.0 mph11.3 kmh 29.73 in1006.8 mb 0.01 in0.3 mm 0.00 in0.0 mm 0.11 in2.8 mm
04:34 AM 34.3°F1.3°C 33.3°F0.7°C 96% 4.0 mph NE6.4 kmh NE 11.0 mph17.7 kmh 29.73 in1006.8 mb 0.01 in0.3 mm 0.00 in0.0 mm 0.11 in2.8 mm
04:36 AM 34.3°F1.3°C 33.3°F0.7°C 96% 6.0 mph NE9.7 kmh NE 9.0 mph14.5 kmh 29.73 in1006.8 mb 0.01 in0.3 mm 0.00 in0.0 mm 0.11 in2.8 mm
04:38 AM 34.3°F1.3°C 33.3°F0.7°C 96% 4.0 mph NE6.4 kmh NE 6.0 mph9.7 kmh 29.73 in1006.8 mb 0.02 in0.5 mm 0.30 in7.6 mm 0.12 in3.0 mm
04:40 AM 34.3°F1.3°C 33.3°F0.7°C 96% 4.0 mph NE6.4 kmh NE 6.0 mph9.7 kmh 29.72 in1006.4 mb 0.02 in0.5 mm 0.00 in0.0 mm 0.12 in3.0 mm
04:42 AM 34.3°F1.3°C 33.3°F0.7°C 96% 4.0 mph NE6.4 kmh NE 7.0 mph11.3 kmh 29.73 in1006.8 mb 0.02 in0.5 mm 0.00 in0.0 mm 0.12 in3.0 mm
04:44 AM 34.3°F1.3°C 33.3°F0.7°C 96% 3.0 mph NE4.8 kmh NE 9.0 mph14.5 kmh 29.73 in1006.8 mb 0.02 in0.5 mm 0.00 in0.0 mm 0.12 in3.0 mm
04:46 AM 34.3°F1.3°C 33.3°F0.7°C 96% 7.0 mph NNW11.3 kmh NNW 9.0 mph14.5 kmh 29.73 in1006.8 mb 0.02 in0.5 mm 0.00 in0.0 mm 0.12 in3.0 mm
04:48 AM 34.3°F1.3°C 33.3°F0.7°C 96% 4.0 mph NNE6.4 kmh NNE 5.0 mph8.0 kmh 29.73 in1006.8 mb 0.02 in0.5 mm 0.00 in0.0 mm 0.12 in3.0 mm
04:50 AM 34.3°F1.3°C 33.3°F0.7°C 96% 7.0 mph NNW11.3 kmh NNW 7.0 mph11.3 kmh 29.73 in1006.8 mb 0.02 in0.5 mm 0.00 in0.0 mm 0.12 in3.0 mm
04:52 AM 34.3°F1.3°C 33.3°F0.7°C 96% 6.0 mph N9.7 kmh N 13.0 mph20.9 kmh 29.73 in1006.8 mb 0.01 in0.3 mm 0.00 in0.0 mm 0.12 in3.0 mm
04:54 AM 34.3°F1.3°C 33.3°F0.7°C 96% 6.0 mph NNW9.7 kmh NNW 8.0 mph12.9 kmh 29.73 in1006.8 mb 0.01 in0.3 mm 0.00 in0.0 mm 0.12 in3.0 mm
04:56 AM 34.3°F1.3°C 33.3°F0.7°C 96% 12.0 mph N19.3 kmh N 12.0 mph19.3 kmh 29.73 in1006.8 mb 0.01 in0.3 mm 0.00 in0.0 mm 0.12 in3.0 mm
04:58 AM 34.3°F1.3°C 33.3°F0.7°C 96% 5.0 mph NE8.0 kmh NE 7.0 mph11.3 kmh 29.73 in1006.8 mb 0.01 in0.3 mm 0.00 in0.0 mm 0.12 in3.0 mm
05:04 AM 34.3°F1.3°C 33.3°F0.7°C 96% 5.0 mph NW8.0 kmh NW 5.0 mph8.0 kmh 29.73 in1006.8 mb 0.01 in0.3 mm 0.00 in0.0 mm 0.12 in3.0 mm
05:06 AM 34.4°F1.3°C 33.4°F0.8°C 96% 7.0 mph NNW11.3 kmh NNW 11.0 mph17.7 kmh 29.73 in1006.8 mb 0.01 in0.3 mm 0.00 in0.0 mm 0.12 in3.0 mm
05:08 AM 34.4°F1.3°C 33.4°F0.8°C 96% 5.0 mph NNW8.0 kmh NNW 10.0 mph16.1 kmh 29.73 in1006.8 mb 0.01 in0.3 mm 0.00 in0.0 mm 0.12 in3.0 mm
05:10 AM 34.4°F1.3°C 33.4°F0.8°C 96% 2.0 mph NNE3.2 kmh NNE 5.0 mph8.0 kmh 29.73 in1006.8 mb 0.01 in0.3 mm 0.00 in0.0 mm 0.12 in3.0 mm
05:12 AM 34.4°F1.3°C 33.4°F0.8°C 96% 5.0 mph N8.0 kmh N 10.0 mph16.1 kmh 29.73 in1006.8 mb 0.01 in0.3 mm 0.00 in0.0 mm 0.12 in3.0 mm
05:14 AM 34.4°F1.3°C 33.4°F0.8°C 96% 4.0 mph N6.4 kmh N 10.0 mph16.1 kmh 29.74 in1007.1 mb 0.01 in0.3 mm 0.00 in0.0 mm 0.12 in3.0 mm
05:16 AM 34.4°F1.3°C 33.4°F0.8°C 96% 3.0 mph N4.8 kmh N 5.0 mph8.0 kmh 29.73 in1006.8 mb 0.01 in0.3 mm 0.00 in0.0 mm 0.12 in3.0 mm
05:18 AM 34.4°F1.3°C 33.4°F0.8°C 96% 3.0 mph N4.8 kmh N 7.0 mph11.3 kmh 29.74 in1007.1 mb 0.01 in0.3 mm 0.00 in0.0 mm 0.12 in3.0 mm
05:20 AM 34.4°F1.3°C 33.4°F0.8°C 96% 4.0 mph N6.4 kmh N 7.0 mph11.3 kmh 29.73 in1006.8 mb 0.01 in0.3 mm 0.00 in0.0 mm 0.12 in3.0 mm
05:22 AM 34.4°F1.3°C 33.4°F0.8°C 96% 6.0 mph N9.7 kmh N 9.0 mph14.5 kmh 29.73 in1006.8 mb 0.01 in0.3 mm 0.00 in0.0 mm 0.12 in3.0 mm
05:24 AM 34.4°F1.3°C 33.4°F0.8°C 96% 11.0 mph NW17.7 kmh NW 14.0 mph22.5 kmh 29.73 in1006.8 mb 0.01 in0.3 mm 0.00 in0.0 mm 0.12 in3.0 mm
05:26 AM 34.4°F1.3°C 33.4°F0.8°C 96% 7.0 mph NNE11.3 kmh NNE 7.0 mph11.3 kmh 29.73 in1006.8 mb 0.02 in0.5 mm 0.30 in7.6 mm 0.13 in3.3 mm
05:28 AM 34.4°F1.3°C 33.4°F0.8°C 96% 4.0 mph N6.4 kmh N 5.0 mph8.0 kmh 29.73 in1006.8 mb 0.02 in0.5 mm 0.00 in0.0 mm 0.13 in3.3 mm
05:30 AM 34.4°F1.3°C 33.4°F0.8°C 96% 6.0 mph N9.7 kmh N 9.0 mph14.5 kmh 29.73 in1006.8 mb 0.02 in0.5 mm 0.00 in0.0 mm 0.13 in3.3 mm
05:32 AM 34.5°F1.4°C 33.5°F0.8°C 96% 6.0 mph NNE9.7 kmh NNE 7.0 mph11.3 kmh 29.73 in1006.8 mb 0.02 in0.5 mm 0.00 in0.0 mm 0.13 in3.3 mm
05:34 AM 34.5°F1.4°C 33.5°F0.8°C 96% 11.0 mph N17.7 kmh N 11.0 mph17.7 kmh 29.73 in1006.8 mb 0.02 in0.5 mm 0.00 in0.0 mm 0.13 in3.3 mm
05:36 AM 34.5°F1.4°C 33.5°F0.8°C 96% 8.0 mph NNE12.9 kmh NNE 8.0 mph12.9 kmh 29.73 in1006.8 mb 0.02 in0.5 mm 0.00 in0.0 mm 0.13 in3.3 mm
05:38 AM 34.5°F1.4°C 33.5°F0.8°C 96% 7.0 mph NE11.3 kmh NE 13.0 mph20.9 kmh 29.73 in1006.8 mb 0.01 in0.3 mm 0.00 in0.0 mm 0.13 in3.3 mm
05:40 AM 34.5°F1.4°C 33.5°F0.8°C 96% 7.0 mph NNE11.3 kmh NNE 9.0 mph14.5 kmh 29.73 in1006.8 mb 0.01 in0.3 mm 0.00 in0.0 mm 0.13 in3.3 mm
05:42 AM 34.6°F1.4°C 33.6°F0.9°C 96% 6.0 mph NE9.7 kmh NE 9.0 mph14.5 kmh 29.74 in1007.1 mb 0.01 in0.3 mm 0.00 in0.0 mm 0.13 in3.3 mm
05:44 AM 34.6°F1.4°C 33.6°F0.9°C 96% 5.0 mph NNE8.0 kmh NNE 5.0 mph8.0 kmh 29.74 in1007.1 mb 0.01 in0.3 mm 0.00 in0.0 mm 0.13 in3.3 mm
05:46 AM 34.6°F1.4°C 33.6°F0.9°C 96% 4.0 mph NE6.4 kmh NE 5.0 mph8.0 kmh 29.74 in1007.1 mb 0.01 in0.3 mm 0.00 in0.0 mm 0.13 in3.3 mm
05:48 AM 34.6°F1.4°C 33.6°F0.9°C 96% 6.0 mph N9.7 kmh N 6.0 mph9.7 kmh 29.74 in1007.1 mb 0.01 in0.3 mm 0.00 in0.0 mm 0.13 in3.3 mm
05:50 AM 34.6°F1.4°C 33.6°F0.9°C 96% 5.0 mph N8.0 kmh N 13.0 mph20.9 kmh 29.73 in1006.8 mb 0.01 in0.3 mm 0.00 in0.0 mm 0.13 in3.3 mm
05:52 AM 34.6°F1.4°C 33.8°F1.0°C 97% 3.0 mph NNE4.8 kmh NNE 6.0 mph9.7 kmh 29.73 in1006.8 mb 0.01 in0.3 mm 0.00 in0.0 mm 0.13 in3.3 mm
05:54 AM 34.6°F1.4°C 33.8°F1.0°C 97% 4.0 mph NNE6.4 kmh NNE 10.0 mph16.1 kmh 29.73 in1006.8 mb 0.01 in0.3 mm 0.00 in0.0 mm 0.13 in3.3 mm
05:56 AM 34.7°F1.5°C 33.9°F1.1°C 97% 7.0 mph N11.3 kmh N 7.0 mph11.3 kmh 29.73 in1006.8 mb 0.01 in0.3 mm 0.00 in0.0 mm 0.13 in3.3 mm
05:58 AM 34.7°F1.5°C 33.9°F1.1°C 97% 4.0 mph N6.4 kmh N 6.0 mph9.7 kmh 29.73 in1006.8 mb 0.01 in0.3 mm 0.00 in0.0 mm 0.13 in3.3 mm
06:00 AM 34.7°F1.5°C 33.9°F1.1°C 97% 10.0 mph N16.1 kmh N 10.0 mph16.1 kmh 29.73 in1006.8 mb 0.01 in0.3 mm 0.00 in0.0 mm 0.13 in3.3 mm
06:02 AM 34.7°F1.5°C 33.7°F0.9°C 96% 11.0 mph N17.7 kmh N 11.0 mph17.7 kmh 29.73 in1006.8 mb 0.02 in0.5 mm 0.30 in7.6 mm 0.14 in3.6 mm
06:04 AM 34.7°F1.5°C 33.7°F0.9°C 96% 3.0 mph N4.8 kmh N 4.0 mph6.4 kmh 29.74 in1007.1 mb 0.02 in0.5 mm 0.00 in0.0 mm 0.14 in3.6 mm
06:06 AM 34.7°F1.5°C 33.7°F0.9°C 96% 7.0 mph WNW11.3 kmh WNW 7.0 mph11.3 kmh 29.74 in1007.1 mb 0.02 in0.5 mm 0.00 in0.0 mm 0.14 in3.6 mm
06:08 AM 34.7°F1.5°C 33.7°F0.9°C 96% 13.0 mph NNW20.9 kmh NNW 13.0 mph20.9 kmh 29.74 in1007.1 mb 0.02 in0.5 mm 0.00 in0.0 mm 0.14 in3.6 mm
06:10 AM 34.7°F1.5°C 33.7°F0.9°C 96% 9.0 mph N14.5 kmh N 9.0 mph14.5 kmh 29.74 in1007.1 mb 0.02 in0.5 mm 0.00 in0.0 mm 0.14 in3.6 mm
06:12 AM 34.7°F1.5°C 33.7°F0.9°C 96% 4.0 mph N6.4 kmh N 7.0 mph11.3 kmh 29.74 in1007.1 mb 0.02 in0.5 mm 0.00 in0.0 mm 0.14 in3.6 mm
06:14 AM 34.8°F1.6°C 33.8°F1.0°C 96% 9.0 mph N14.5 kmh N 9.0 mph14.5 kmh 29.74 in1007.1 mb 0.02 in0.5 mm 0.00 in0.0 mm 0.14 in3.6 mm
06:16 AM 34.7°F1.5°C 33.7°F0.9°C 96% 7.0 mph N11.3 kmh N 7.0 mph11.3 kmh 29.74 in1007.1 mb 0.02 in0.5 mm 0.00 in0.0 mm 0.14 in3.6 mm
06:18 AM 34.8°F1.6°C 33.8°F1.0°C 96% 9.0 mph N14.5 kmh N 10.0 mph16.1 kmh 29.74 in1007.1 mb 0.02 in0.5 mm 0.00 in0.0 mm 0.14 in3.6 mm
06:20 AM 34.8°F1.6°C 33.8°F1.0°C 96% 5.0 mph NNE8.0 kmh NNE 6.0 mph9.7 kmh 29.74 in1007.1 mb 0.02 in0.5 mm 0.00 in0.0 mm 0.14 in3.6 mm
06:22 AM 34.8°F1.6°C 33.8°F1.0°C 96% 5.0 mph N8.0 kmh N 7.0 mph11.3 kmh 29.74 in1007.1 mb 0.02 in0.5 mm 0.00 in0.0 mm 0.14 in3.6 mm
06:24 AM 34.8°F1.6°C 33.8°F1.0°C 96% 3.0 mph N4.8 kmh N 4.0 mph6.4 kmh 29.75 in1007.5 mb 0.02 in0.5 mm 0.00 in0.0 mm 0.14 in3.6 mm
06:26 AM 34.8°F1.6°C 33.8°F1.0°C 96% 6.0 mph ENE9.7 kmh ENE 7.0 mph11.3 kmh 29.74 in1007.1 mb 0.01 in0.3 mm 0.00 in0.0 mm 0.14 in3.6 mm
06:28 AM 34.8°F1.6°C 33.8°F1.0°C 96% 6.0 mph NE9.7 kmh NE 9.0 mph14.5 kmh 29.74 in1007.1 mb 0.01 in0.3 mm 0.00 in0.0 mm 0.14 in3.6 mm
06:30 AM 34.8°F1.6°C 33.8°F1.0°C 96% 5.0 mph N8.0 kmh N 5.0 mph8.0 kmh 29.75 in1007.5 mb 0.02 in0.5 mm 0.30 in7.6 mm 0.15 in3.8 mm
06:32 AM 34.8°F1.6°C 33.8°F1.0°C 96% 7.0 mph NNE11.3 kmh NNE 12.0 mph19.3 kmh 29.75 in1007.5 mb 0.02 in0.5 mm 0.00 in0.0 mm 0.15 in3.8 mm
06:34 AM 34.8°F1.6°C 33.8°F1.0°C 96% 9.0 mph NW14.5 kmh NW 11.0 mph17.7 kmh 29.75 in1007.5 mb 0.02 in0.5 mm 0.00 in0.0 mm 0.15 in3.8 mm
06:36 AM 34.8°F1.6°C 33.8°F1.0°C 96% 4.0 mph NNE6.4 kmh NNE 4.0 mph6.4 kmh 29.75 in1007.5 mb 0.02 in0.5 mm 0.00 in0.0 mm 0.15 in3.8 mm
06:38 AM 34.8°F1.6°C 33.8°F1.0°C 96% 3.0 mph NE4.8 kmh NE 6.0 mph9.7 kmh 29.75 in1007.5 mb 0.02 in0.5 mm 0.00 in0.0 mm 0.15 in3.8 mm
06:40 AM 34.9°F1.6°C 33.9°F1.1°C 96% 13.0 mph N20.9 kmh N 13.0 mph20.9 kmh 29.75 in1007.5 mb 0.02 in0.5 mm 0.00 in0.0 mm 0.15 in3.8 mm
06:42 AM 34.9°F1.6°C 33.9°F1.1°C 96% 11.0 mph NW17.7 kmh NW 11.0 mph17.7 kmh 29.75 in1007.5 mb 0.02 in0.5 mm 0.00 in0.0 mm 0.15 in3.8 mm
06:44 AM 34.9°F1.6°C 33.9°F1.1°C 96% 6.0 mph N9.7 kmh N 7.0 mph11.3 kmh 29.75 in1007.5 mb 0.02 in0.5 mm 0.00 in0.0 mm 0.15 in3.8 mm
06:46 AM 34.9°F1.6°C 33.9°F1.1°C 96% 6.0 mph NW9.7 kmh NW 7.0 mph11.3 kmh 29.75 in1007.5 mb 0.02 in0.5 mm 0.00 in0.0 mm 0.15 in3.8 mm
06:48 AM 34.8°F1.6°C 33.8°F1.0°C 96% 5.0 mph N8.0 kmh N 10.0 mph16.1 kmh 29.75 in1007.5 mb 0.02 in0.5 mm 0.00 in0.0 mm 0.15 in3.8 mm
06:50 AM 34.9°F1.6°C 33.9°F1.1°C 96% 6.0 mph NNW9.7 kmh NNW 9.0 mph14.5 kmh 29.75 in1007.5 mb 0.02 in0.5 mm 0.00 in0.0 mm 0.15 in3.8 mm
06:52 AM 34.9°F1.6°C 33.9°F1.1°C 96% 3.0 mph NE4.8 kmh NE 18.0 mph29.0 kmh 29.75 in1007.5 mb 0.02 in0.5 mm 0.00 in0.0 mm 0.15 in3.8 mm
06:54 AM 34.9°F1.6°C 33.9°F1.1°C 96% 5.0 mph NNW8.0 kmh NNW 7.0 mph11.3 kmh 29.75 in1007.5 mb 0.02 in0.5 mm 0.00 in0.0 mm 0.15 in3.8 mm
06:56 AM 34.9°F1.6°C 33.9°F1.1°C 96% 3.0 mph NNE4.8 kmh NNE 8.0 mph12.9 kmh 29.75 in1007.5 mb 0.02 in0.5 mm 0.00 in0.0 mm 0.15 in3.8 mm
06:58 AM 34.9°F1.6°C 33.9°F1.1°C 96% 1.0 mph NE1.6 kmh NE 7.0 mph11.3 kmh 29.75 in1007.5 mb 0.02 in0.5 mm 0.00 in0.0 mm 0.15 in3.8 mm
07:00 AM 34.9°F1.6°C 33.9°F1.1°C 96% 8.0 mph N12.9 kmh N 8.0 mph12.9 kmh 29.75 in1007.5 mb 0.02 in0.5 mm 0.00 in0.0 mm 0.15 in3.8 mm
07:02 AM 34.9°F1.6°C 33.9°F1.1°C 96% 6.0 mph NE9.7 kmh NE 20.0 mph32.2 kmh 29.75 in1007.5 mb 0.01 in0.3 mm 0.00 in0.0 mm 0.15 in3.8 mm
07:04 AM 34.9°F1.6°C 33.9°F1.1°C 96% 6.0 mph N9.7 kmh N 16.0 mph25.7 kmh 29.75 in1007.5 mb 0.01 in0.3 mm 0.00 in0.0 mm 0.15 in3.8 mm
07:06 AM 34.9°F1.6°C 33.9°F1.1°C 96% 2.0 mph N3.2 kmh N 3.0 mph4.8 kmh 29.75 in1007.5 mb 0.01 in0.3 mm 0.00 in0.0 mm 0.15 in3.8 mm
07:08 AM 34.9°F1.6°C 33.9°F1.1°C 96% 7.0 mph NE11.3 kmh NE 7.0 mph11.3 kmh 29.75 in1007.5 mb 0.01 in0.3 mm 0.00 in0.0 mm 0.15 in3.8 mm
07:10 AM 34.8°F1.6°C 33.8°F1.0°C 96% 3.0 mph NE4.8 kmh NE 7.0 mph11.3 kmh 29.75 in1007.5 mb 0.01 in0.3 mm 0.00 in0.0 mm 0.15 in3.8 mm
07:12 AM 34.8°F1.6°C 33.8°F1.0°C 96% 7.0 mph WNW11.3 kmh WNW 12.0 mph19.3 kmh 29.76 in1007.8 mb 0.02 in0.5 mm 0.30 in7.6 mm 0.16 in4.1 mm
07:14 AM 34.9°F1.6°C 33.9°F1.1°C 96% 6.0 mph NW9.7 kmh NW 6.0 mph9.7 kmh 29.75 in1007.5 mb 0.02 in0.5 mm 0.00 in0.0 mm 0.16 in4.1 mm
07:16 AM 34.8°F1.6°C 33.8°F1.0°C 96% 4.0 mph SSE6.4 kmh SSE 8.0 mph12.9 kmh 29.75 in1007.5 mb 0.02 in0.5 mm 0.00 in0.0 mm 0.16 in4.1 mm
07:18 AM 34.9°F1.6°C 33.9°F1.1°C 96% 4.0 mph NNW6.4 kmh NNW 10.0 mph16.1 kmh 29.76 in1007.8 mb 0.02 in0.5 mm 0.00 in0.0 mm 0.16 in4.1 mm
07:20 AM 34.9°F1.6°C 33.9°F1.1°C 96% 6.0 mph NNW9.7 kmh NNW 10.0 mph16.1 kmh 29.76 in1007.8 mb 0.02 in0.5 mm 0.00 in0.0 mm 0.16 in4.1 mm
07:22 AM 34.9°F1.6°C 33.9°F1.1°C 96% 8.0 mph N12.9 kmh N 12.0 mph19.3 kmh 29.76 in1007.8 mb 0.02 in0.5 mm 0.00 in0.0 mm 0.16 in4.1 mm
07:24 AM 34.9°F1.6°C 33.9°F1.1°C 96% 9.0 mph NE14.5 kmh NE 11.0 mph17.7 kmh 29.76 in1007.8 mb 0.02 in0.5 mm 0.00 in0.0 mm 0.16 in4.1 mm
07:26 AM 34.9°F1.6°C 33.9°F1.1°C 96% 19.0 mph NW30.6 kmh NW 19.0 mph30.6 kmh 29.76 in1007.8 mb 0.02 in0.5 mm 0.00 in0.0 mm 0.16 in4.1 mm
07:28 AM 34.9°F1.6°C 33.9°F1.1°C 96% 9.0 mph NNW14.5 kmh NNW 10.0 mph16.1 kmh 29.76 in1007.8 mb 0.02 in0.5 mm 0.00 in0.0 mm 0.16 in4.1 mm
07:30 AM 34.9°F1.6°C 33.9°F1.1°C 96% 6.0 mph NW9.7 kmh NW 17.0 mph27.4 kmh 29.76 in1007.8 mb 0.02 in0.5 mm 0.00 in0.0 mm 0.16 in4.1 mm
07:32 AM 34.9°F1.6°C 33.9°F1.1°C 96% 10.0 mph NE16.1 kmh NE 10.0 mph16.1 kmh 29.76 in1007.8 mb 0.01 in0.3 mm 0.00 in0.0 mm 0.16 in4.1 mm
07:34 AM 34.9°F1.6°C 33.9°F1.1°C 96% 9.0 mph N14.5 kmh N 9.0 mph14.5 kmh 29.76 in1007.8 mb 0.01 in0.3 mm 0.00 in0.0 mm 0.16 in4.1 mm
07:36 AM 34.9°F1.6°C 33.9°F1.1°C 96% 6.0 mph NNW9.7 kmh NNW 17.0 mph27.4 kmh 29.76 in1007.8 mb 0.01 in0.3 mm 0.00 in0.0 mm 0.16 in4.1 mm
07:38 AM 34.9°F1.6°C 33.9°F1.1°C 96% 6.0 mph N9.7 kmh N 11.0 mph17.7 kmh 29.76 in1007.8 mb 0.01 in0.3 mm 0.00 in0.0 mm 0.16 in4.1 mm
07:40 AM 34.9°F1.6°C 33.9°F1.1°C 96% 6.0 mph NNE9.7 kmh NNE 11.0 mph17.7 kmh 29.76 in1007.8 mb 0.01 in0.3 mm 0.00 in0.0 mm 0.16 in4.1 mm
07:42 AM 34.9°F1.6°C 33.9°F1.1°C 96% 9.0 mph NE14.5 kmh NE 14.0 mph22.5 kmh 29.76 in1007.8 mb 0.01 in0.3 mm 0.00 in0.0 mm 0.16 in4.1 mm
07:44 AM 35.0°F1.7°C 34.0°F1.1°C 96% 9.0 mph N14.5 kmh N 15.0 mph24.1 kmh 29.76 in1007.8 mb 0.01 in0.3 mm 0.00 in0.0 mm 0.16 in4.1 mm
07:46 AM 35.0°F1.7°C 34.0°F1.1°C 96% 19.0 mph NW30.6 kmh NW 19.0 mph30.6 kmh 29.75 in1007.5 mb 0.02 in0.5 mm 0.30 in7.6 mm 0.17 in4.3 mm
07:48 AM 35.0°F1.7°C 34.0°F1.1°C 96% 6.0 mph NW9.7 kmh NW 13.0 mph20.9 kmh 29.76 in1007.8 mb 0.02 in0.5 mm 0.00 in0.0 mm 0.17 in4.3 mm
07:50 AM 35.0°F1.7°C 34.0°F1.1°C 96% 10.0 mph NE16.1 kmh NE 12.0 mph19.3 kmh 29.76 in1007.8 mb 0.02 in0.5 mm 0.00 in0.0 mm 0.17 in4.3 mm
07:52 AM 35.0°F1.7°C 34.0°F1.1°C 96% 7.0 mph N11.3 kmh N 13.0 mph20.9 kmh 29.76 in1007.8 mb 0.02 in0.5 mm 0.00 in0.0 mm 0.17 in4.3 mm
07:54 AM 35.0°F1.7°C 34.0°F1.1°C 96% 5.0 mph N8.0 kmh N 15.0 mph24.1 kmh 29.76 in1007.8 mb 0.02 in0.5 mm 0.00 in0.0 mm 0.17 in4.3 mm
07:56 AM 35.0°F1.7°C 34.0°F1.1°C 96% 5.0 mph NNE8.0 kmh NNE 6.0 mph9.7 kmh 29.76 in1007.8 mb 0.02 in0.5 mm 0.00 in0.0 mm 0.17 in4.3 mm
07:58 AM 35.0°F1.7°C 34.0°F1.1°C 96% 15.0 mph NW24.1 kmh NW 15.0 mph24.1 kmh 29.75 in1007.5 mb 0.02 in0.5 mm 0.00 in0.0 mm 0.17 in4.3 mm
08:00 AM 35.0°F1.7°C 34.0°F1.1°C 96% 11.0 mph NNW17.7 kmh NNW 15.0 mph24.1 kmh 29.76 in1007.8 mb 0.02 in0.5 mm 0.00 in0.0 mm 0.17 in4.3 mm
08:02 AM 35.0°F1.7°C 34.0°F1.1°C 96% 16.0 mph NW25.7 kmh NW 20.0 mph32.2 kmh 29.75 in1007.5 mb 0.02 in0.5 mm 0.00 in0.0 mm 0.17 in4.3 mm
08:04 AM 35.0°F1.7°C 34.0°F1.1°C 96% 14.0 mph N22.5 kmh N 14.0 mph22.5 kmh 29.75 in1007.5 mb 0.02 in0.5 mm 0.00 in0.0 mm 0.17 in4.3 mm
08:06 AM 35.0°F1.7°C 34.0°F1.1°C 96% 5.0 mph NNW8.0 kmh NNW 14.0 mph22.5 kmh 29.76 in1007.8 mb 0.02 in0.5 mm 0.00 in0.0 mm 0.17 in4.3 mm
08:08 AM 35.0°F1.7°C 34.0°F1.1°C 96% 6.0 mph N9.7 kmh N 15.0 mph24.1 kmh 29.75 in1007.5 mb 0.02 in0.5 mm 0.00 in0.0 mm 0.17 in4.3 mm
08:10 AM 35.0°F1.7°C 34.0°F1.1°C 96% 5.0 mph NW8.0 kmh NW 7.0 mph11.3 kmh 29.75 in1007.5 mb 0.02 in0.5 mm 0.00 in0.0 mm 0.17 in4.3 mm
08:12 AM 35.0°F1.7°C 34.0°F1.1°C 96% 16.0 mph NNW25.7 kmh NNW 16.0 mph25.7 kmh 29.76 in1007.8 mb 0.02 in0.5 mm 0.00 in0.0 mm 0.17 in4.3 mm
08:14 AM 35.0°F1.7°C 34.0°F1.1°C 96% 11.0 mph N17.7 kmh N 12.0 mph19.3 kmh 29.76 in1007.8 mb 0.02 in0.5 mm 0.00 in0.0 mm 0.17 in4.3 mm
08:16 AM 35.0°F1.7°C 34.0°F1.1°C 96% 11.0 mph NE17.7 kmh NE 11.0 mph17.7 kmh 29.76 in1007.8 mb 0.02 in0.5 mm 0.00 in0.0 mm 0.17 in4.3 mm
08:18 AM 35.0°F1.7°C 34.0°F1.1°C 96% 10.0 mph N16.1 kmh N 12.0 mph19.3 kmh 29.76 in1007.8 mb 0.02 in0.5 mm 0.00 in0.0 mm 0.17 in4.3 mm
08:20 AM 35.0°F1.7°C 34.0°F1.1°C 96% 16.0 mph NNE25.7 kmh NNE 16.0 mph25.7 kmh 29.76 in1007.8 mb 0.02 in0.5 mm 0.00 in0.0 mm 0.17 in4.3 mm
08:22 AM 35.0°F1.7°C 34.0°F1.1°C 96% 10.0 mph NNW16.1 kmh NNW 10.0 mph16.1 kmh 29.76 in1007.8 mb 0.02 in0.5 mm 0.00 in0.0 mm 0.17 in4.3 mm
08:24 AM 35.1°F1.7°C 34.1°F1.2°C 96% 5.0 mph N8.0 kmh N 7.0 mph11.3 kmh 29.77 in1008.1 mb 0.02 in0.5 mm 0.00 in0.0 mm 0.17 in4.3 mm
08:26 AM 35.1°F1.7°C 34.1°F1.2°C 96% 3.0 mph N4.8 kmh N 11.0 mph17.7 kmh 29.76 in1007.8 mb 0.02 in0.5 mm 0.00 in0.0 mm 0.17 in4.3 mm
08:28 AM 35.1°F1.7°C 34.1°F1.2°C 96% 12.0 mph NW19.3 kmh NW 12.0 mph19.3 kmh 29.77 in1008.1 mb 0.02 in0.5 mm 0.00 in0.0 mm 0.17 in4.3 mm
08:30 AM 35.2°F1.8°C 34.2°F1.2°C 96% 8.0 mph N12.9 kmh N 18.0 mph29.0 kmh 29.77 in1008.1 mb 0.02 in0.5 mm 0.00 in0.0 mm 0.17 in4.3 mm
08:32 AM 35.2°F1.8°C 34.2°F1.2°C 96% 5.0 mph N8.0 kmh N 5.0 mph8.0 kmh 29.77 in1008.1 mb 0.02 in0.5 mm 0.00 in0.0 mm 0.17 in4.3 mm
08:34 AM 35.2°F1.8°C 34.2°F1.2°C 96% 6.0 mph N9.7 kmh N 10.0 mph16.1 kmh 29.77 in1008.1 mb 0.02 in0.5 mm 0.00 in0.0 mm 0.17 in4.3 mm
08:36 AM 35.2°F1.8°C 34.2°F1.2°C 96% 5.0 mph N8.0 kmh N 5.0 mph8.0 kmh 29.77 in1008.1 mb 0.02 in0.5 mm 0.00 in0.0 mm 0.17 in4.3 mm
08:38 AM 35.2°F1.8°C 34.2°F1.2°C 96% 5.0 mph ENE8.0 kmh ENE 9.0 mph14.5 kmh 29.77 in1008.1 mb 0.02 in0.5 mm 0.00 in0.0 mm 0.17 in4.3 mm
08:40 AM 35.2°F1.8°C 34.2°F1.2°C 96% 8.0 mph N12.9 kmh N 11.0 mph17.7 kmh 29.77 in1008.1 mb 0.03 in0.8 mm 0.30 in7.6 mm 0.18 in4.6 mm
08:42 AM 35.3°F1.8°C 34.3°F1.3°C 96% 11.0 mph NNW17.7 kmh NNW 11.0 mph17.7 kmh 29.77 in1008.1 mb 0.03 in0.8 mm 0.00 in0.0 mm 0.18 in4.6 mm
08:44 AM 35.3°F1.8°C 34.3°F1.3°C 96% 10.0 mph NW16.1 kmh NW 11.0 mph17.7 kmh 29.77 in1008.1 mb 0.03 in0.8 mm 0.00 in0.0 mm 0.18 in4.6 mm
08:46 AM 35.3°F1.8°C 34.3°F1.3°C 96% 5.0 mph N8.0 kmh N 5.0 mph8.0 kmh 29.76 in1007.8 mb 0.02 in0.5 mm 0.00 in0.0 mm 0.18 in4.6 mm
08:48 AM 35.4°F1.9°C 34.4°F1.3°C 96% 5.0 mph N8.0 kmh N 5.0 mph8.0 kmh 29.77 in1008.1 mb 0.02 in0.5 mm 0.00 in0.0 mm 0.18 in4.6 mm
08:50 AM 35.5°F1.9°C 34.5°F1.4°C 96% 5.0 mph NE8.0 kmh NE 6.0 mph9.7 kmh 29.76 in1007.8 mb 0.02 in0.5 mm 0.00 in0.0 mm 0.18 in4.6 mm
08:52 AM 35.5°F1.9°C 34.5°F1.4°C 96% 6.0 mph NNE9.7 kmh NNE 6.0 mph9.7 kmh 29.77 in1008.1 mb 0.02 in0.5 mm 0.00 in0.0 mm 0.18 in4.6 mm
08:54 AM 35.6°F2.0°C 34.6°F1.4°C 96% 13.0 mph NE20.9 kmh NE 13.0 mph20.9 kmh 29.77 in1008.1 mb 0.02 in0.5 mm 0.00 in0.0 mm 0.18 in4.6 mm
08:56 AM 35.6°F2.0°C 34.6°F1.4°C 96% 9.0 mph NNW14.5 kmh NNW 9.0 mph14.5 kmh 29.77 in1008.1 mb 0.02 in0.5 mm 0.00 in0.0 mm 0.18 in4.6 mm
08:58 AM 35.6°F2.0°C 34.6°F1.4°C 96% 7.0 mph NW11.3 kmh NW 12.0 mph19.3 kmh 29.77 in1008.1 mb 0.02 in0.5 mm 0.00 in0.0 mm 0.18 in4.6 mm
09:00 AM 35.7°F2.1°C 34.7°F1.5°C 96% 6.0 mph NW9.7 kmh NW 7.0 mph11.3 kmh 29.77 in1008.1 mb 0.02 in0.5 mm 0.00 in0.0 mm 0.18 in4.6 mm
09:02 AM 35.7°F2.1°C 34.7°F1.5°C 96% 6.0 mph NNW9.7 kmh NNW 6.0 mph9.7 kmh 29.77 in1008.1 mb 0.03 in0.8 mm 0.30 in7.6 mm 0.19 in4.8 mm
09:04 AM 35.7°F2.1°C 34.7°F1.5°C 96% 6.0 mph NE9.7 kmh NE 11.0 mph17.7 kmh 29.77 in1008.1 mb 0.03 in0.8 mm 0.00 in0.0 mm 0.19 in4.8 mm
09:06 AM 35.7°F2.1°C 34.7°F1.5°C 96% 12.0 mph N19.3 kmh N 12.0 mph19.3 kmh 29.77 in1008.1 mb 0.03 in0.8 mm 0.00 in0.0 mm 0.19 in4.8 mm
09:08 AM 35.8°F2.1°C 34.8°F1.6°C 96% 15.0 mph N24.1 kmh N 15.0 mph24.1 kmh 29.77 in1008.1 mb 0.03 in0.8 mm 0.00 in0.0 mm 0.19 in4.8 mm
09:10 AM 35.8°F2.1°C 34.8°F1.6°C 96% 11.0 mph ENE17.7 kmh ENE 11.0 mph17.7 kmh 29.77 in1008.1 mb 0.03 in0.8 mm 0.00 in0.0 mm 0.19 in4.8 mm
09:12 AM 35.8°F2.1°C 34.8°F1.6°C 96% 5.0 mph NNE8.0 kmh NNE 6.0 mph9.7 kmh 29.77 in1008.1 mb 0.02 in0.5 mm 0.00 in0.0 mm 0.19 in4.8 mm
09:14 AM 35.8°F2.1°C 34.8°F1.6°C 96% 3.0 mph NE4.8 kmh NE 5.0 mph8.0 kmh 29.77 in1008.1 mb 0.02 in0.5 mm 0.00 in0.0 mm 0.19 in4.8 mm
09:16 AM 35.8°F2.1°C 34.8°F1.6°C 96% 7.0 mph NNE11.3 kmh NNE 9.0 mph14.5 kmh 29.78 in1008.5 mb 0.02 in0.5 mm 0.00 in0.0 mm 0.19 in4.8 mm
09:18 AM 35.8°F2.1°C 34.8°F1.6°C 96% 12.0 mph N19.3 kmh N 16.0 mph25.7 kmh 29.77 in1008.1 mb 0.02 in0.5 mm 0.00 in0.0 mm 0.19 in4.8 mm
09:20 AM 35.8°F2.1°C 34.8°F1.6°C 96% 4.0 mph NNE6.4 kmh NNE 5.0 mph8.0 kmh 29.78 in1008.5 mb 0.02 in0.5 mm 0.00 in0.0 mm 0.19 in4.8 mm
09:22 AM 35.9°F2.2°C 34.9°F1.6°C 96% 11.0 mph NNE17.7 kmh NNE 17.0 mph27.4 kmh 29.78 in1008.5 mb 0.02 in0.5 mm 0.00 in0.0 mm 0.19 in4.8 mm
09:24 AM 35.9°F2.2°C 34.9°F1.6°C 96% 11.0 mph N17.7 kmh N 11.0 mph17.7 kmh 29.78 in1008.5 mb 0.03 in0.8 mm 0.30 in7.6 mm 0.20 in5.1 mm
09:26 AM 35.9°F2.2°C 34.9°F1.6°C 96% 5.0 mph NNE8.0 kmh NNE 11.0 mph17.7 kmh 29.77 in1008.1 mb 0.03 in0.8 mm 0.00 in0.0 mm 0.20 in5.1 mm
09:28 AM 36.0°F2.2°C 35.0°F1.7°C 96% 10.0 mph N16.1 kmh N 10.0 mph16.1 kmh 29.78 in1008.5 mb 0.03 in0.8 mm 0.00 in0.0 mm 0.20 in5.1 mm
09:30 AM 36.0°F2.2°C 35.0°F1.7°C 96% 7.0 mph NE11.3 kmh NE 7.0 mph11.3 kmh 29.78 in1008.5 mb 0.03 in0.8 mm 0.00 in0.0 mm 0.20 in5.1 mm
09:32 AM 36.0°F2.2°C 35.0°F1.7°C 96% 15.0 mph N24.1 kmh N 15.0 mph24.1 kmh 29.78 in1008.5 mb 0.03 in0.8 mm 0.00 in0.0 mm 0.20 in5.1 mm
09:34 AM 36.0°F2.2°C 35.0°F1.7°C 96% 9.0 mph ENE14.5 kmh ENE 9.0 mph14.5 kmh 29.78 in1008.5 mb 0.03 in0.8 mm 0.00 in0.0 mm 0.20 in5.1 mm
09:36 AM 36.1°F2.3°C 35.1°F1.7°C 96% 11.0 mph NNW17.7 kmh NNW 11.0 mph17.7 kmh 29.78 in1008.5 mb 0.03 in0.8 mm 0.00 in0.0 mm 0.20 in5.1 mm
09:38 AM 36.1°F2.3°C 35.1°F1.7°C 96% 6.0 mph NNW9.7 kmh NNW 9.0 mph14.5 kmh 29.78 in1008.5 mb 0.03 in0.8 mm 0.00 in0.0 mm 0.20 in5.1 mm
09:40 AM 36.1°F2.3°C 35.1°F1.7°C 96% 10.0 mph N16.1 kmh N 10.0 mph16.1 kmh 29.78 in1008.5 mb 0.02 in0.5 mm 0.00 in0.0 mm 0.20 in5.1 mm
09:42 AM 36.1°F2.3°C 34.8°F1.6°C 95% 6.0 mph N9.7 kmh N 7.0 mph11.3 kmh 29.78 in1008.5 mb 0.02 in0.5 mm 0.00 in0.0 mm 0.20 in5.1 mm
09:44 AM 36.1°F2.3°C 34.8°F1.6°C 95% 11.0 mph N17.7 kmh N 11.0 mph17.7 kmh 29.78 in1008.5 mb 0.02 in0.5 mm 0.00 in0.0 mm 0.20 in5.1 mm
09:46 AM 36.1°F2.3°C 34.8°F1.6°C 95% 6.0 mph N9.7 kmh N 10.0 mph16.1 kmh 29.78 in1008.5 mb 0.03 in0.8 mm 0.30 in7.6 mm 0.21 in5.3 mm
09:48 AM 36.1°F2.3°C 34.8°F1.6°C 95% 5.0 mph NNE8.0 kmh NNE 12.0 mph19.3 kmh 29.78 in1008.5 mb 0.03 in0.8 mm 0.00 in0.0 mm 0.21 in5.3 mm
09:50 AM 36.2°F2.3°C 34.9°F1.6°C 95% 7.0 mph NNE11.3 kmh NNE 7.0 mph11.3 kmh 29.78 in1008.5 mb 0.03 in0.8 mm 0.00 in0.0 mm 0.21 in5.3 mm
09:52 AM 36.3°F2.4°C 35.0°F1.7°C 95% 5.0 mph NE8.0 kmh NE 12.0 mph19.3 kmh 29.78 in1008.5 mb 0.03 in0.8 mm 0.00 in0.0 mm 0.21 in5.3 mm
09:54 AM 36.4°F2.4°C 35.1°F1.7°C 95% 7.0 mph NNE11.3 kmh NNE 9.0 mph14.5 kmh 29.78 in1008.5 mb 0.03 in0.8 mm 0.00 in0.0 mm 0.21 in5.3 mm
09:56 AM 36.4°F2.4°C 35.1°F1.7°C 95% 9.0 mph N14.5 kmh N 9.0 mph14.5 kmh 29.78 in1008.5 mb 0.03 in0.8 mm 0.00 in0.0 mm 0.21 in5.3 mm
09:58 AM 36.5°F2.5°C 35.2°F1.8°C 95% 15.0 mph NNE24.1 kmh NNE 15.0 mph24.1 kmh 29.78 in1008.5 mb 0.03 in0.8 mm 0.00 in0.0 mm 0.21 in5.3 mm
10:00 AM 36.5°F2.5°C 35.2°F1.8°C 95% 6.0 mph N9.7 kmh N 8.0 mph12.9 kmh 29.78 in1008.5 mb 0.03 in0.8 mm 0.00 in0.0 mm 0.21 in5.3 mm
10:02 AM 36.6°F2.6°C 35.3°F1.8°C 95% 12.0 mph N19.3 kmh N 12.0 mph19.3 kmh 29.79 in1008.8 mb 0.02 in0.5 mm 0.00 in0.0 mm 0.21 in5.3 mm
10:04 AM 36.7°F2.6°C 35.4°F1.9°C 95% 4.0 mph N6.4 kmh N 5.0 mph8.0 kmh 29.78 in1008.5 mb 0.03 in0.8 mm 0.30 in7.6 mm 0.22 in5.6 mm
10:06 AM 36.8°F2.7°C 35.5°F1.9°C 95% 9.0 mph N14.5 kmh N 11.0 mph17.7 kmh 29.78 in1008.5 mb 0.03 in0.8 mm 0.00 in0.0 mm 0.22 in5.6 mm
10:08 AM 36.8°F2.7°C 35.5°F1.9°C 95% 12.0 mph NNE19.3 kmh NNE 13.0 mph20.9 kmh 29.78 in1008.5 mb 0.03 in0.8 mm 0.00 in0.0 mm 0.22 in5.6 mm
10:10 AM 36.8°F2.7°C 35.5°F1.9°C 95% 5.0 mph NNE8.0 kmh NNE 6.0 mph9.7 kmh 29.79 in1008.8 mb 0.03 in0.8 mm 0.00 in0.0 mm 0.22 in5.6 mm
10:12 AM 36.9°F2.7°C 35.6°F2.0°C 95% 8.0 mph N12.9 kmh N 18.0 mph29.0 kmh 29.79 in1008.8 mb 0.03 in0.8 mm 0.00 in0.0 mm 0.22 in5.6 mm
10:14 AM 36.9°F2.7°C 35.6°F2.0°C 95% 10.0 mph N16.1 kmh N 16.0 mph25.7 kmh 29.79 in1008.8 mb 0.03 in0.8 mm 0.00 in0.0 mm 0.22 in5.6 mm
10:16 AM 36.9°F2.7°C 35.6°F2.0°C 95% 10.0 mph N16.1 kmh N 10.0 mph16.1 kmh 29.79 in1008.8 mb 0.03 in0.8 mm 0.00 in0.0 mm 0.22 in5.6 mm
10:18 AM 36.9°F2.7°C 35.6°F2.0°C 95% 6.0 mph N9.7 kmh N 12.0 mph19.3 kmh 29.79 in1008.8 mb 0.03 in0.8 mm 0.00 in0.0 mm 0.22 in5.6 mm
10:20 AM 36.9°F2.7°C 35.6°F2.0°C 95% 8.0 mph NW12.9 kmh NW 11.0 mph17.7 kmh 29.80 in1009.1 mb 0.04 in1.0 mm 0.30 in7.6 mm 0.23 in5.8 mm
10:22 AM 37.0°F2.8°C 35.7°F2.1°C 95% 4.0 mph N6.4 kmh N 9.0 mph14.5 kmh 29.80 in1009.1 mb 0.04 in1.0 mm 0.00 in0.0 mm 0.23 in5.8 mm
10:24 AM 37.1°F2.8°C 35.8°F2.1°C 95% 11.0 mph N17.7 kmh N 17.0 mph27.4 kmh 29.79 in1008.8 mb 0.04 in1.0 mm 0.00 in0.0 mm 0.23 in5.8 mm
10:26 AM 37.1°F2.8°C 35.8°F2.1°C 95% 6.0 mph NNW9.7 kmh NNW 12.0 mph19.3 kmh 29.80 in1009.1 mb 0.03 in0.8 mm 0.00 in0.0 mm 0.23 in5.8 mm
10:28 AM 37.1°F2.8°C 35.8°F2.1°C 95% 14.0 mph NW22.5 kmh NW 17.0 mph27.4 kmh 29.80 in1009.1 mb 0.03 in0.8 mm 0.00 in0.0 mm 0.23 in5.8 mm
10:30 AM 37.1°F2.8°C 35.5°F1.9°C 94% 7.0 mph NNE11.3 kmh NNE 12.0 mph19.3 kmh 29.80 in1009.1 mb 0.03 in0.8 mm 0.00 in0.0 mm 0.23 in5.8 mm
10:32 AM 37.1°F2.8°C 35.5°F1.9°C 94% 12.0 mph NNW19.3 kmh NNW 13.0 mph20.9 kmh 29.80 in1009.1 mb 0.03 in0.8 mm 0.00 in0.0 mm 0.23 in5.8 mm
10:34 AM 37.1°F2.8°C 35.5°F1.9°C 94% 6.0 mph NNW9.7 kmh NNW 6.0 mph9.7 kmh 29.80 in1009.1 mb 0.03 in0.8 mm 0.00 in0.0 mm 0.23 in5.8 mm
10:36 AM 37.2°F2.9°C 35.6°F2.0°C 94% 7.0 mph NNW11.3 kmh NNW 13.0 mph20.9 kmh 29.80 in1009.1 mb 0.04 in1.0 mm 0.30 in7.6 mm 0.24 in6.1 mm
10:38 AM 37.2°F2.9°C 35.6°F2.0°C 94% 8.0 mph NNE12.9 kmh NNE 8.0 mph12.9 kmh 29.80 in1009.1 mb 0.04 in1.0 mm 0.00 in0.0 mm 0.24 in6.1 mm
10:40 AM 37.2°F2.9°C 35.6°F2.0°C 94% 7.0 mph NE11.3 kmh NE 7.0 mph11.3 kmh 29.80 in1009.1 mb 0.04 in1.0 mm 0.00 in0.0 mm 0.24 in6.1 mm
10:42 AM 37.1°F2.8°C 35.5°F1.9°C 94% 7.0 mph N11.3 kmh N 7.0 mph11.3 kmh 29.80 in1009.1 mb 0.04 in1.0 mm 0.00 in0.0 mm 0.24 in6.1 mm
10:44 AM 37.1°F2.8°C 35.5°F1.9°C 94% 6.0 mph NE9.7 kmh NE 12.0 mph19.3 kmh 29.80 in1009.1 mb 0.04 in1.0 mm 0.00 in0.0 mm 0.24 in6.1 mm
10:46 AM 37.1°F2.8°C 35.5°F1.9°C 94% 7.0 mph NNW11.3 kmh NNW 11.0 mph17.7 kmh 29.80 in1009.1 mb 0.03 in0.8 mm 0.00 in0.0 mm 0.24 in6.1 mm
10:48 AM 37.0°F2.8°C 35.4°F1.9°C 94% 4.0 mph NNW6.4 kmh NNW 4.0 mph6.4 kmh 29.80 in1009.1 mb 0.03 in0.8 mm 0.00 in0.0 mm 0.24 in6.1 mm
10:50 AM 37.0°F2.8°C 35.4°F1.9°C 94% 6.0 mph NNE9.7 kmh NNE 7.0 mph11.3 kmh 29.80 in1009.1 mb 0.04 in1.0 mm 0.30 in7.6 mm 0.25 in6.4 mm
10:52 AM 37.0°F2.8°C 35.4°F1.9°C 94% 8.0 mph NE12.9 kmh NE 8.0 mph12.9 kmh 29.80 in1009.1 mb 0.04 in1.0 mm 0.00 in0.0 mm 0.25 in6.4 mm
10:54 AM 36.9°F2.7°C 35.3°F1.8°C 94% 6.0 mph N9.7 kmh N 7.0 mph11.3 kmh 29.80 in1009.1 mb 0.04 in1.0 mm 0.00 in0.0 mm 0.25 in6.4 mm
10:56 AM 36.9°F2.7°C 35.3°F1.8°C 94% 6.0 mph N9.7 kmh N 13.0 mph20.9 kmh 29.80 in1009.1 mb 0.04 in1.0 mm 0.00 in0.0 mm 0.25 in6.4 mm
10:58 AM 36.9°F2.7°C 35.3°F1.8°C 94% 6.0 mph N9.7 kmh N 6.0 mph9.7 kmh 29.80 in1009.1 mb 0.04 in1.0 mm 0.00 in0.0 mm 0.25 in6.4 mm
11:00 AM 36.8°F2.7°C 35.2°F1.8°C 94% 6.0 mph NE9.7 kmh NE 6.0 mph9.7 kmh 29.79 in1008.8 mb 0.04 in1.0 mm 0.00 in0.0 mm 0.25 in6.4 mm
11:02 AM 36.8°F2.7°C 35.2°F1.8°C 94% 7.0 mph N11.3 kmh N 7.0 mph11.3 kmh 29.80 in1009.1 mb 0.04 in1.0 mm 0.00 in0.0 mm 0.25 in6.4 mm
11:04 AM 36.8°F2.7°C 35.2°F1.8°C 94% 4.0 mph NNE6.4 kmh NNE 4.0 mph6.4 kmh 29.80 in1009.1 mb 0.04 in1.0 mm 0.00 in0.0 mm 0.25 in6.4 mm
11:06 AM 36.8°F2.7°C 35.2°F1.8°C 94% 14.0 mph NNW22.5 kmh NNW 15.0 mph24.1 kmh 29.80 in1009.1 mb 0.04 in1.0 mm 0.00 in0.0 mm 0.25 in6.4 mm
11:08 AM 36.8°F2.7°C 35.2°F1.8°C 94% 4.0 mph NNE6.4 kmh NNE 5.0 mph8.0 kmh 29.80 in1009.1 mb 0.04 in1.0 mm 0.00 in0.0 mm 0.25 in6.4 mm
11:10 AM 36.9°F2.7°C 35.3°F1.8°C 94% 8.0 mph N12.9 kmh N 13.0 mph20.9 kmh 29.80 in1009.1 mb 0.04 in1.0 mm 0.00 in0.0 mm 0.25 in6.4 mm
11:12 AM 36.9°F2.7°C 35.6°F2.0°C 95% 6.0 mph NNE9.7 kmh NNE 6.0 mph9.7 kmh 29.79 in1008.8 mb 0.04 in1.0 mm 0.00 in0.0 mm 0.25 in6.4 mm
11:14 AM 37.0°F2.8°C 35.7°F2.1°C 95% 6.0 mph NE9.7 kmh NE 11.0 mph17.7 kmh 29.80 in1009.1 mb 0.04 in1.0 mm 0.00 in0.0 mm 0.25 in6.4 mm
11:16 AM 37.0°F2.8°C 35.7°F2.1°C 95% 7.0 mph N11.3 kmh N 7.0 mph11.3 kmh 29.80 in1009.1 mb 0.04 in1.0 mm 0.00 in0.0 mm 0.25 in6.4 mm
11:18 AM 37.1°F2.8°C 35.8°F2.1°C 95% 9.0 mph N14.5 kmh N 9.0 mph14.5 kmh 29.80 in1009.1 mb 0.04 in1.0 mm 0.00 in0.0 mm 0.25 in6.4 mm
11:20 AM 37.1°F2.8°C 35.8°F2.1°C 95% 7.0 mph NNE11.3 kmh NNE 7.0 mph11.3 kmh 29.80 in1009.1 mb 0.04 in1.0 mm 0.00 in0.0 mm 0.25 in6.4 mm
11:22 AM 37.2°F2.9°C 35.9°F2.2°C 95% 8.0 mph N12.9 kmh N 12.0 mph19.3 kmh 29.80 in1009.1 mb 0.04 in1.0 mm 0.00 in0.0 mm 0.25 in6.4 mm
11:24 AM 37.3°F2.9°C 36.0°F2.2°C 95% 7.0 mph NNW11.3 kmh NNW 9.0 mph14.5 kmh 29.80 in1009.1 mb 0.04 in1.0 mm 0.00 in0.0 mm 0.25 in6.4 mm
11:26 AM 37.3°F2.9°C 36.0°F2.2°C 95% 16.0 mph NW25.7 kmh NW 19.0 mph30.6 kmh 29.80 in1009.1 mb 0.04 in1.0 mm 0.00 in0.0 mm 0.25 in6.4 mm
11:28 AM 37.3°F2.9°C 36.0°F2.2°C 95% 6.0 mph NW9.7 kmh NW 6.0 mph9.7 kmh 29.80 in1009.1 mb 0.04 in1.0 mm 0.00 in0.0 mm 0.25 in6.4 mm
11:30 AM 37.3°F2.9°C 36.0°F2.2°C 95% 10.0 mph NNE16.1 kmh NNE 10.0 mph16.1 kmh 29.80 in1009.1 mb 0.04 in1.0 mm 0.00 in0.0 mm 0.25 in6.4 mm
11:32 AM 37.4°F3.0°C 36.1°F2.3°C 95% 6.0 mph NE9.7 kmh NE 10.0 mph16.1 kmh 29.80 in1009.1 mb 0.04 in1.0 mm 0.00 in0.0 mm 0.25 in6.4 mm
11:34 AM 37.5°F3.1°C 36.2°F2.3°C 95% 4.0 mph ENE6.4 kmh ENE 6.0 mph9.7 kmh 29.80 in1009.1 mb 0.04 in1.0 mm 0.00 in0.0 mm 0.25 in6.4 mm
11:36 AM 37.7°F3.2°C 36.4°F2.4°C 95% 5.0 mph W8.0 kmh W 10.0 mph16.1 kmh 29.80 in1009.1 mb 0.03 in0.8 mm 0.00 in0.0 mm 0.25 in6.4 mm
11:38 AM 37.8°F3.2°C 36.5°F2.5°C 95% 10.0 mph NNW16.1 kmh NNW 10.0 mph16.1 kmh 29.80 in1009.1 mb 0.04 in1.0 mm 0.30 in7.6 mm 0.26 in6.6 mm
11:40 AM 37.9°F3.3°C 36.6°F2.6°C 95% 3.0 mph NW4.8 kmh NW 12.0 mph19.3 kmh 29.80 in1009.1 mb 0.04 in1.0 mm 0.00 in0.0 mm 0.26 in6.6 mm
11:42 AM 37.9°F3.3°C 36.6°F2.6°C 95% 9.0 mph N14.5 kmh N 9.0 mph14.5 kmh 29.80 in1009.1 mb 0.04 in1.0 mm 0.00 in0.0 mm 0.26 in6.6 mm
11:44 AM 38.0°F3.3°C 36.7°F2.6°C 95% 4.0 mph N6.4 kmh N 5.0 mph8.0 kmh 29.80 in1009.1 mb 0.04 in1.0 mm 0.00 in0.0 mm 0.26 in6.6 mm
11:46 AM 38.2°F3.4°C 36.9°F2.7°C 95% 10.0 mph N16.1 kmh N 10.0 mph16.1 kmh 29.80 in1009.1 mb 0.04 in1.0 mm 0.00 in0.0 mm 0.26 in6.6 mm
11:48 AM 38.3°F3.5°C 37.0°F2.8°C 95% 9.0 mph NW14.5 kmh NW 11.0 mph17.7 kmh 29.80 in1009.1 mb 0.04 in1.0 mm 0.00 in0.0 mm 0.26 in6.6 mm
11:50 AM 38.4°F3.6°C 37.1°F2.8°C 95% 9.0 mph NNE14.5 kmh NNE 9.0 mph14.5 kmh 29.80 in1009.1 mb 0.04 in1.0 mm 0.00 in0.0 mm 0.26 in6.6 mm
11:52 AM 38.5°F3.6°C 37.2°F2.9°C 95% 6.0 mph WSW9.7 kmh WSW 7.0 mph11.3 kmh 29.80 in1009.1 mb 0.03 in0.8 mm 0.00 in0.0 mm 0.26 in6.6 mm
11:54 AM 38.6°F3.7°C 37.3°F2.9°C 95% 4.0 mph NNE6.4 kmh NNE 4.0 mph6.4 kmh 29.80 in1009.1 mb 0.04 in1.0 mm 0.30 in7.6 mm 0.27 in6.9 mm
11:56 AM 38.8°F3.8°C 37.5°F3.1°C 95% 7.0 mph ENE11.3 kmh ENE 7.0 mph11.3 kmh 29.80 in1009.1 mb 0.04 in1.0 mm 0.00 in0.0 mm 0.27 in6.9 mm
11:58 AM 38.8°F3.8°C 37.5°F3.1°C 95% 9.0 mph NNE14.5 kmh NNE 15.0 mph24.1 kmh 29.80 in1009.1 mb 0.04 in1.0 mm 0.00 in0.0 mm 0.27 in6.9 mm
12:00 PM 38.8°F3.8°C 37.5°F3.1°C 95% 8.0 mph NNW12.9 kmh NNW 10.0 mph16.1 kmh 29.80 in1009.1 mb 0.04 in1.0 mm 0.00 in0.0 mm 0.27 in6.9 mm
12:02 PM 38.9°F3.8°C 37.6°F3.1°C 95% 13.0 mph NNW20.9 kmh NNW 16.0 mph25.7 kmh 29.80 in1009.1 mb 0.04 in1.0 mm 0.00 in0.0 mm 0.27 in6.9 mm
12:04 PM 39.0°F3.9°C 37.7°F3.2°C 95% 15.0 mph NNE24.1 kmh NNE 15.0 mph24.1 kmh 29.81 in1009.5 mb 0.03 in0.8 mm 0.00 in0.0 mm 0.27 in6.9 mm
12:06 PM 39.0°F3.9°C 37.7°F3.2°C 95% 5.0 mph N8.0 kmh N 10.0 mph16.1 kmh 29.80 in1009.1 mb 0.03 in0.8 mm 0.00 in0.0 mm 0.27 in6.9 mm
12:08 PM 39.0°F3.9°C 37.7°F3.2°C 95% 10.0 mph N16.1 kmh N 16.0 mph25.7 kmh 29.80 in1009.1 mb 0.03 in0.8 mm 0.00 in0.0 mm 0.27 in6.9 mm
12:10 PM 39.0°F3.9°C 37.7°F3.2°C 95% 11.0 mph N17.7 kmh N 11.0 mph17.7 kmh 29.80 in1009.1 mb 0.04 in1.0 mm 0.30 in7.6 mm 0.28 in7.1 mm
12:12 PM 39.1°F3.9°C 37.5°F3.1°C 94% 6.0 mph N9.7 kmh N 10.0 mph16.1 kmh 29.80 in1009.1 mb 0.04 in1.0 mm 0.00 in0.0 mm 0.28 in7.1 mm
12:14 PM 39.1°F3.9°C 37.5°F3.1°C 94% 12.0 mph N19.3 kmh N 12.0 mph19.3 kmh 29.80 in1009.1 mb 0.04 in1.0 mm 0.00 in0.0 mm 0.28 in7.1 mm
12:16 PM 39.2°F4.0°C 37.6°F3.1°C 94% 3.0 mph ENE4.8 kmh ENE 9.0 mph14.5 kmh 29.81 in1009.5 mb 0.04 in1.0 mm 0.00 in0.0 mm 0.28 in7.1 mm
12:18 PM 39.3°F4.1°C 37.7°F3.2°C 94% 4.0 mph NNE6.4 kmh NNE 7.0 mph11.3 kmh 29.81 in1009.5 mb 0.04 in1.0 mm 0.00 in0.0 mm 0.28 in7.1 mm
12:20 PM 39.3°F4.1°C 37.7°F3.2°C 94% 4.0 mph NE6.4 kmh NE 7.0 mph11.3 kmh 29.81 in1009.5 mb 0.04 in1.0 mm 0.00 in0.0 mm 0.28 in7.1 mm
12:22 PM 39.4°F4.1°C 37.8°F3.2°C 94% 4.0 mph N6.4 kmh N 10.0 mph16.1 kmh 29.81 in1009.5 mb 0.03 in0.8 mm 0.00 in0.0 mm 0.28 in7.1 mm
12:24 PM 39.3°F4.1°C 37.7°F3.2°C 94% 9.0 mph N14.5 kmh N 13.0 mph20.9 kmh 29.81 in1009.5 mb 0.03 in0.8 mm 0.00 in0.0 mm 0.28 in7.1 mm
12:26 PM 39.3°F4.1°C 37.7°F3.2°C 94% 7.0 mph N11.3 kmh N 7.0 mph11.3 kmh 29.81 in1009.5 mb 0.03 in0.8 mm 0.00 in0.0 mm 0.28 in7.1 mm
12:28 PM 39.2°F4.0°C 37.6°F3.1°C 94% 8.0 mph NNW12.9 kmh NNW 14.0 mph22.5 kmh 29.82 in1009.8 mb 0.03 in0.8 mm 0.00 in0.0 mm 0.28 in7.1 mm
12:30 PM 39.1°F3.9°C 37.3°F2.9°C 93% 7.0 mph NW11.3 kmh NW 11.0 mph17.7 kmh 29.82 in1009.8 mb 0.04 in1.0 mm 0.30 in7.6 mm 0.29 in7.4 mm
12:32 PM 39.0°F3.9°C 37.2°F2.9°C 93% 7.0 mph N11.3 kmh N 11.0 mph17.7 kmh 29.82 in1009.8 mb 0.04 in1.0 mm 0.00 in0.0 mm 0.29 in7.4 mm
12:34 PM 38.9°F3.8°C 37.1°F2.8°C 93% 9.0 mph NW14.5 kmh NW 14.0 mph22.5 kmh 29.82 in1009.8 mb 0.04 in1.0 mm 0.00 in0.0 mm 0.29 in7.4 mm
12:36 PM 38.8°F3.8°C 36.7°F2.6°C 92% 6.0 mph NNW9.7 kmh NNW 6.0 mph9.7 kmh 29.82 in1009.8 mb 0.04 in1.0 mm 0.00 in0.0 mm 0.29 in7.4 mm
12:38 PM 38.8°F3.8°C 36.7°F2.6°C 92% 2.0 mph NW3.2 kmh NW 3.0 mph4.8 kmh 29.82 in1009.8 mb 0.03 in0.8 mm 0.00 in0.0 mm 0.29 in7.4 mm
12:40 PM 38.8°F3.8°C 37.0°F2.8°C 93% 11.0 mph NW17.7 kmh NW 23.0 mph37.0 kmh 29.82 in1009.8 mb 0.03 in0.8 mm 0.00 in0.0 mm 0.29 in7.4 mm
12:42 PM 38.7°F3.7°C 36.6°F2.6°C 92% 13.0 mph NE20.9 kmh NE 13.0 mph20.9 kmh 29.83 in1010.2 mb 0.03 in0.8 mm 0.00 in0.0 mm 0.29 in7.4 mm
12:44 PM 38.7°F3.7°C 36.6°F2.6°C 92% 7.0 mph N11.3 kmh N 10.0 mph16.1 kmh 29.82 in1009.8 mb 0.03 in0.8 mm 0.00 in0.0 mm 0.29 in7.4 mm
12:46 PM 38.7°F3.7°C 36.6°F2.6°C 92% 16.0 mph NW25.7 kmh NW 16.0 mph25.7 kmh 29.82 in1009.8 mb 0.03 in0.8 mm 0.00 in0.0 mm 0.29 in7.4 mm
12:48 PM 38.7°F3.7°C 36.6°F2.6°C 92% 11.0 mph N17.7 kmh N 13.0 mph20.9 kmh 29.82 in1009.8 mb 0.03 in0.8 mm 0.00 in0.0 mm 0.29 in7.4 mm
12:50 PM 38.7°F3.7°C 36.6°F2.6°C 92% 9.0 mph N14.5 kmh N 14.0 mph22.5 kmh 29.82 in1009.8 mb 0.03 in0.8 mm 0.00 in0.0 mm 0.29 in7.4 mm
12:52 PM 38.7°F3.7°C 36.6°F2.6°C 92% 4.0 mph N6.4 kmh N 5.0 mph8.0 kmh 29.83 in1010.2 mb 0.03 in0.8 mm 0.00 in0.0 mm 0.29 in7.4 mm
12:54 PM 38.8°F3.8°C 36.7°F2.6°C 92% 4.0 mph NNE6.4 kmh NNE 7.0 mph11.3 kmh 29.83 in1010.2 mb 0.03 in0.8 mm 0.00 in0.0 mm 0.29 in7.4 mm
12:56 PM 38.8°F3.8°C 36.7°F2.6°C 92% 10.0 mph NNW16.1 kmh NNW 13.0 mph20.9 kmh 29.83 in1010.2 mb 0.02 in0.5 mm 0.00 in0.0 mm 0.29 in7.4 mm
12:58 PM 38.8°F3.8°C 36.7°F2.6°C 92% 6.0 mph N9.7 kmh N 10.0 mph16.1 kmh 29.82 in1009.8 mb 0.02 in0.5 mm 0.00 in0.0 mm 0.29 in7.4 mm
01:00 PM 38.8°F3.8°C 36.7°F2.6°C 92% 4.0 mph ENE6.4 kmh ENE 13.0 mph20.9 kmh 29.82 in1009.8 mb 0.03 in0.8 mm 0.01 in0.3 mm 0.30 in7.6 mm
01:02 PM 38.8°F3.8°C 36.4°F2.4°C 91% 7.0 mph N11.3 kmh N 15.0 mph24.1 kmh 29.82 in1009.8 mb 0.03 in0.8 mm 0.00 in0.0 mm 0.30 in7.6 mm
01:04 PM 38.8°F3.8°C 36.4°F2.4°C 91% 9.0 mph NNE14.5 kmh NNE 9.0 mph14.5 kmh 29.83 in1010.2 mb 0.03 in0.8 mm 0.00 in0.0 mm 0.30 in7.6 mm
01:06 PM 38.8°F3.8°C 36.4°F2.4°C 91% 5.0 mph NNE8.0 kmh NNE 13.0 mph20.9 kmh 29.83 in1010.2 mb 0.03 in0.8 mm 0.00 in0.0 mm 0.30 in7.6 mm
01:08 PM 38.9°F3.8°C 36.5°F2.5°C 91% 6.0 mph N9.7 kmh N 18.0 mph29.0 kmh 29.83 in1010.2 mb 0.03 in0.8 mm 0.00 in0.0 mm 0.30 in7.6 mm
01:10 PM 38.9°F3.8°C 36.5°F2.5°C 91% 2.0 mph N3.2 kmh N 12.0 mph19.3 kmh 29.83 in1010.2 mb 0.03 in0.8 mm 0.00 in0.0 mm 0.30 in7.6 mm
01:12 PM 38.9°F3.8°C 36.5°F2.5°C 91% 2.0 mph N3.2 kmh N 6.0 mph9.7 kmh 29.83 in1010.2 mb 0.02 in0.5 mm 0.00 in0.0 mm 0.30 in7.6 mm
01:14 PM 39.0°F3.9°C 36.6°F2.6°C 91% 3.0 mph NE4.8 kmh NE 3.0 mph4.8 kmh 29.83 in1010.2 mb 0.02 in0.5 mm 0.00 in0.0 mm 0.30 in7.6 mm
01:16 PM 39.0°F3.9°C 36.6°F2.6°C 91% 5.0 mph NE8.0 kmh NE 7.0 mph11.3 kmh 29.83 in1010.2 mb 0.02 in0.5 mm 0.00 in0.0 mm 0.30 in7.6 mm
01:18 PM 39.1°F3.9°C 36.7°F2.6°C 91% 10.0 mph NNW16.1 kmh NNW 14.0 mph22.5 kmh 29.83 in1010.2 mb 0.02 in0.5 mm 0.00 in0.0 mm 0.30 in7.6 mm
01:20 PM 39.1°F3.9°C 36.7°F2.6°C 91% 6.0 mph NNE9.7 kmh NNE 13.0 mph20.9 kmh 29.83 in1010.2 mb 0.02 in0.5 mm 0.00 in0.0 mm 0.30 in7.6 mm
01:22 PM 39.1°F3.9°C 36.7°F2.6°C 91% 10.0 mph NNE16.1 kmh NNE 10.0 mph16.1 kmh 29.83 in1010.2 mb 0.02 in0.5 mm 0.00 in0.0 mm 0.30 in7.6 mm
01:24 PM 39.2°F4.0°C 36.5°F2.5°C 90% 7.0 mph N11.3 kmh N 12.0 mph19.3 kmh 29.83 in1010.2 mb 0.02 in0.5 mm 0.00 in0.0 mm 0.30 in7.6 mm
01:26 PM 39.2°F4.0°C 36.5°F2.5°C 90% 6.0 mph NNE9.7 kmh NNE 15.0 mph24.1 kmh 29.83 in1010.2 mb 0.02 in0.5 mm 0.00 in0.0 mm 0.30 in7.6 mm
01:28 PM 39.2°F4.0°C 36.5°F2.5°C 90% 9.0 mph NW14.5 kmh NW 11.0 mph17.7 kmh 29.83 in1010.2 mb 0.02 in0.5 mm 0.00 in0.0 mm 0.30 in7.6 mm
01:30 PM 39.3°F4.1°C 36.6°F2.6°C 90% 4.0 mph N6.4 kmh N 8.0 mph12.9 kmh 29.83 in1010.2 mb 0.01 in0.3 mm 0.00 in0.0 mm 0.30 in7.6 mm
01:32 PM 39.3°F4.1°C 36.6°F2.6°C 90% 10.0 mph N16.1 kmh N 10.0 mph16.1 kmh 29.83 in1010.2 mb 0.01 in0.3 mm 0.00 in0.0 mm 0.30 in7.6 mm
01:34 PM 39.4°F4.1°C 36.7°F2.6°C 90% 14.0 mph NW22.5 kmh NW 14.0 mph22.5 kmh 29.83 in1010.2 mb 0.02 in0.5 mm 0.30 in7.6 mm 0.31 in7.9 mm
01:36 PM 39.4°F4.1°C 36.7°F2.6°C 90% 5.0 mph NNE8.0 kmh NNE 6.0 mph9.7 kmh 29.83 in1010.2 mb 0.02 in0.5 mm 0.00 in0.0 mm 0.31 in7.9 mm
01:38 PM 39.5°F4.2°C 36.5°F2.5°C 89% 5.0 mph NE8.0 kmh NE 5.0 mph8.0 kmh 29.83 in1010.2 mb 0.02 in0.5 mm 0.00 in0.0 mm 0.31 in7.9 mm
01:40 PM 39.5°F4.2°C 36.8°F2.7°C 90% 11.0 mph N17.7 kmh N 14.0 mph22.5 kmh 29.83 in1010.2 mb 0.02 in0.5 mm 0.00 in0.0 mm 0.31 in7.9 mm
01:42 PM 39.5°F4.2°C 36.5°F2.5°C 89% 6.0 mph N9.7 kmh N 11.0 mph17.7 kmh 29.83 in1010.2 mb 0.02 in0.5 mm 0.00 in0.0 mm 0.31 in7.9 mm
01:44 PM 39.5°F4.2°C 36.5°F2.5°C 89% 9.0 mph N14.5 kmh N 13.0 mph20.9 kmh 29.83 in1010.2 mb 0.02 in0.5 mm 0.00 in0.0 mm 0.31 in7.9 mm
01:46 PM 39.5°F4.2°C 36.5°F2.5°C 89% 7.0 mph NNW11.3 kmh NNW 23.0 mph37.0 kmh 29.83 in1010.2 mb 0.02 in0.5 mm 0.00 in0.0 mm 0.31 in7.9 mm
01:48 PM 39.4°F4.1°C 36.4°F2.4°C 89% 5.0 mph NW8.0 kmh NW 9.0 mph14.5 kmh 29.83 in1010.2 mb 0.02 in0.5 mm 0.00 in0.0 mm 0.31 in7.9 mm
01:50 PM 39.5°F4.2°C 36.5°F2.5°C 89% 6.0 mph NNE9.7 kmh NNE 11.0 mph17.7 kmh 29.82 in1009.8 mb 0.02 in0.5 mm 0.00 in0.0 mm 0.31 in7.9 mm
01:52 PM 39.6°F4.2°C 36.9°F2.7°C 90% 6.0 mph NW9.7 kmh NW 6.0 mph9.7 kmh 29.82 in1009.8 mb 0.02 in0.5 mm 0.00 in0.0 mm 0.31 in7.9 mm
01:54 PM 39.8°F4.3°C 37.1°F2.8°C 90% 11.0 mph NNW17.7 kmh NNW 11.0 mph17.7 kmh 29.82 in1009.8 mb 0.02 in0.5 mm 0.00 in0.0 mm 0.31 in7.9 mm
01:56 PM 40.0°F4.4°C 37.3°F2.9°C 90% 4.0 mph NNW6.4 kmh NNW 6.0 mph9.7 kmh 29.82 in1009.8 mb 0.02 in0.5 mm 0.00 in0.0 mm 0.31 in7.9 mm
01:58 PM 40.1°F4.5°C 37.4°F3.0°C 90% 7.0 mph NE11.3 kmh NE 13.0 mph20.9 kmh 29.82 in1009.8 mb 0.02 in0.5 mm 0.00 in0.0 mm 0.31 in7.9 mm
02:00 PM 40.2°F4.6°C 37.5°F3.1°C 90% 6.0 mph N9.7 kmh N 15.0 mph24.1 kmh 29.82 in1009.8 mb 0.01 in0.3 mm 0.00 in0.0 mm 0.31 in7.9 mm
02:02 PM 40.4°F4.7°C 37.4°F3.0°C 89% 9.0 mph NNE14.5 kmh NNE 16.0 mph25.7 kmh 29.83 in1010.2 mb 0.01 in0.3 mm 0.00 in0.0 mm 0.31 in7.9 mm
02:04 PM 40.4°F4.7°C 37.4°F3.0°C 89% 3.0 mph N4.8 kmh N 7.0 mph11.3 kmh 29.83 in1010.2 mb 0.02 in0.5 mm 0.30 in7.6 mm 0.32 in8.1 mm
02:06 PM 40.6°F4.8°C 37.6°F3.1°C 89% 9.0 mph N14.5 kmh N 12.0 mph19.3 kmh 29.83 in1010.2 mb 0.02 in0.5 mm 0.00 in0.0 mm 0.32 in8.1 mm
02:08 PM 40.6°F4.8°C 37.3°F2.9°C 88% 14.0 mph NNW22.5 kmh NNW 14.0 mph22.5 kmh 29.83 in1010.2 mb 0.02 in0.5 mm 0.00 in0.0 mm 0.32 in8.1 mm
02:10 PM 40.7°F4.8°C 37.4°F3.0°C 88% 7.0 mph NW11.3 kmh NW 11.0 mph17.7 kmh 29.83 in1010.2 mb 0.02 in0.5 mm 0.00 in0.0 mm 0.32 in8.1 mm
02:12 PM 40.7°F4.8°C 37.4°F3.0°C 88% 16.0 mph NNE25.7 kmh NNE 16.0 mph25.7 kmh 29.83 in1010.2 mb 0.02 in0.5 mm 0.00 in0.0 mm 0.32 in8.1 mm
02:14 PM 40.7°F4.8°C 37.1°F2.8°C 87% 11.0 mph NNE17.7 kmh NNE 11.0 mph17.7 kmh 29.83 in1010.2 mb 0.02 in0.5 mm 0.00 in0.0 mm 0.32 in8.1 mm
02:16 PM 40.7°F4.8°C 37.1°F2.8°C 87% 5.0 mph N8.0 kmh N 9.0 mph14.5 kmh 29.83 in1010.2 mb 0.02 in0.5 mm 0.00 in0.0 mm 0.32 in8.1 mm
02:18 PM 40.7°F4.8°C 37.1°F2.8°C 87% 7.0 mph NNW11.3 kmh NNW 7.0 mph11.3 kmh 29.83 in1010.2 mb 0.02 in0.5 mm 0.00 in0.0 mm 0.32 in8.1 mm
02:20 PM 40.9°F4.9°C 37.3°F2.9°C 87% 5.0 mph N8.0 kmh N 5.0 mph8.0 kmh 29.83 in1010.2 mb 0.02 in0.5 mm 0.00 in0.0 mm 0.32 in8.1 mm
02:22 PM 41.0°F5.0°C 37.7°F3.2°C 88% 9.0 mph NNW14.5 kmh NNW 13.0 mph20.9 kmh 29.83 in1010.2 mb 0.02 in0.5 mm 0.00 in0.0 mm 0.32 in8.1 mm
02:24 PM 41.0°F5.0°C 37.1°F2.8°C 86% 7.0 mph N11.3 kmh N 9.0 mph14.5 kmh 29.83 in1010.2 mb 0.02 in0.5 mm 0.00 in0.0 mm 0.32 in8.1 mm
02:26 PM 41.0°F5.0°C 37.1°F2.8°C 86% 7.0 mph N11.3 kmh N 7.0 mph11.3 kmh 29.83 in1010.2 mb 0.02 in0.5 mm 0.00 in0.0 mm 0.32 in8.1 mm
02:28 PM 41.1°F5.1°C 37.2°F2.9°C 86% 5.0 mph E8.0 kmh E 11.0 mph17.7 kmh 29.84 in1010.5 mb 0.02 in0.5 mm 0.00 in0.0 mm 0.32 in8.1 mm
02:30 PM 41.1°F5.1°C 37.2°F2.9°C 86% 6.0 mph NNW9.7 kmh NNW 12.0 mph19.3 kmh 29.84 in1010.5 mb 0.02 in0.5 mm 0.00 in0.0 mm 0.32 in8.1 mm
02:32 PM 41.0°F5.0°C 36.8°F2.7°C 85% 4.0 mph W6.4 kmh W 4.0 mph6.4 kmh 29.84 in1010.5 mb 0.02 in0.5 mm 0.00 in0.0 mm 0.32 in8.1 mm
02:34 PM 41.0°F5.0°C 36.8°F2.7°C 85% 11.0 mph N17.7 kmh N 11.0 mph17.7 kmh 29.85 in1010.8 mb 0.01 in0.3 mm 0.00 in0.0 mm 0.32 in8.1 mm
02:36 PM 40.9°F4.9°C 36.5°F2.5°C 84% 6.0 mph N9.7 kmh N 10.0 mph16.1 kmh 29.85 in1010.8 mb 0.02 in0.5 mm 0.30 in7.6 mm 0.33 in8.4 mm
02:38 PM 40.9°F4.9°C 36.5°F2.5°C 84% 10.0 mph WNW16.1 kmh WNW 10.0 mph16.1 kmh 29.85 in1010.8 mb 0.02 in0.5 mm 0.00 in0.0 mm 0.33 in8.4 mm
02:40 PM 40.8°F4.9°C 36.4°F2.4°C 84% 11.0 mph N17.7 kmh N 11.0 mph17.7 kmh 29.85 in1010.8 mb 0.02 in0.5 mm 0.00 in0.0 mm 0.33 in8.4 mm
02:42 PM 40.7°F4.8°C 36.0°F2.2°C 83% 8.0 mph NNE12.9 kmh NNE 8.0 mph12.9 kmh 29.85 in1010.8 mb 0.02 in0.5 mm 0.00 in0.0 mm 0.33 in8.4 mm
02:44 PM 40.6°F4.8°C 35.9°F2.2°C 83% 4.0 mph NNE6.4 kmh NNE 6.0 mph9.7 kmh 29.85 in1010.8 mb 0.02 in0.5 mm 0.00 in0.0 mm 0.33 in8.4 mm
02:46 PM 40.6°F4.8°C 35.9°F2.2°C 83% 10.0 mph N16.1 kmh N 10.0 mph16.1 kmh 29.86 in1011.2 mb 0.02 in0.5 mm 0.00 in0.0 mm 0.33 in8.4 mm
02:48 PM 40.6°F4.8°C 36.2°F2.3°C 84% 10.0 mph N16.1 kmh N 10.0 mph16.1 kmh 29.86 in1011.2 mb 0.02 in0.5 mm 0.00 in0.0 mm 0.33 in8.4 mm
02:50 PM 40.6°F4.8°C 36.2°F2.3°C 84% 5.0 mph N8.0 kmh N 9.0 mph14.5 kmh 29.86 in1011.2 mb 0.02 in0.5 mm 0.00 in0.0 mm 0.33 in8.4 mm
02:52 PM 40.6°F4.8°C 36.2°F2.3°C 84% 10.0 mph NNW16.1 kmh NNW 11.0 mph17.7 kmh 29.86 in1011.2 mb 0.02 in0.5 mm 0.00 in0.0 mm 0.33 in8.4 mm
02:54 PM 40.6°F4.8°C 35.9°F2.2°C 83% 5.0 mph N8.0 kmh N 8.0 mph12.9 kmh 29.86 in1011.2 mb 0.02 in0.5 mm 0.00 in0.0 mm 0.33 in8.4 mm
02:56 PM 40.6°F4.8°C 36.2°F2.3°C 84% 9.0 mph N14.5 kmh N 12.0 mph19.3 kmh 29.86 in1011.2 mb 0.02 in0.5 mm 0.00 in0.0 mm 0.33 in8.4 mm
02:58 PM 40.6°F4.8°C 35.9°F2.2°C 83% 6.0 mph NW9.7 kmh NW 6.0 mph9.7 kmh 29.87 in1011.5 mb 0.02 in0.5 mm 0.00 in0.0 mm 0.33 in8.4 mm
03:00 PM 40.6°F4.8°C 35.9°F2.2°C 83% 2.0 mph N3.2 kmh N 6.0 mph9.7 kmh 29.87 in1011.5 mb 0.02 in0.5 mm 0.00 in0.0 mm 0.33 in8.4 mm
03:02 PM 40.6°F4.8°C 35.9°F2.2°C 83% 8.0 mph N12.9 kmh N 8.0 mph12.9 kmh 29.87 in1011.5 mb 0.02 in0.5 mm 0.00 in0.0 mm 0.33 in8.4 mm
03:04 PM 40.6°F4.8°C 35.9°F2.2°C 83% 16.0 mph NNW25.7 kmh NNW 16.0 mph25.7 kmh 29.87 in1011.5 mb 0.02 in0.5 mm 0.00 in0.0 mm 0.33 in8.4 mm
03:06 PM 40.6°F4.8°C 35.6°F2.0°C 82% 6.0 mph N9.7 kmh N 11.0 mph17.7 kmh 29.87 in1011.5 mb 0.01 in0.3 mm 0.00 in0.0 mm 0.33 in8.4 mm
03:08 PM 40.5°F4.7°C 35.5°F1.9°C 82% 4.0 mph NNE6.4 kmh NNE 6.0 mph9.7 kmh 29.87 in1011.5 mb 0.01 in0.3 mm 0.00 in0.0 mm 0.33 in8.4 mm
03:10 PM 40.5°F4.7°C 35.5°F1.9°C 82% 4.0 mph N6.4 kmh N 11.0 mph17.7 kmh 29.88 in1011.9 mb 0.01 in0.3 mm 0.00 in0.0 mm 0.33 in8.4 mm
03:12 PM 40.5°F4.7°C 35.8°F2.1°C 83% 5.0 mph N8.0 kmh N 9.0 mph14.5 kmh 29.88 in1011.9 mb 0.01 in0.3 mm 0.00 in0.0 mm 0.33 in8.4 mm
03:14 PM 40.5°F4.7°C 35.8°F2.1°C 83% 6.0 mph NNW9.7 kmh NNW 11.0 mph17.7 kmh 29.88 in1011.9 mb 0.01 in0.3 mm 0.00 in0.0 mm 0.33 in8.4 mm
03:16 PM 40.5°F4.7°C 35.8°F2.1°C 83% 2.0 mph NW3.2 kmh NW 6.0 mph9.7 kmh 29.88 in1011.9 mb 0.01 in0.3 mm 0.00 in0.0 mm 0.33 in8.4 mm
03:18 PM 40.5°F4.7°C 35.8°F2.1°C 83% 7.0 mph NE11.3 kmh NE 12.0 mph19.3 kmh 29.88 in1011.9 mb 0.01 in0.3 mm 0.00 in0.0 mm 0.33 in8.4 mm
03:20 PM 40.5°F4.7°C 35.8°F2.1°C 83% 5.0 mph NNE8.0 kmh NNE 5.0 mph8.0 kmh 29.88 in1011.9 mb 0.01 in0.3 mm 0.00 in0.0 mm 0.33 in8.4 mm
03:22 PM 40.5°F4.7°C 35.8°F2.1°C 83% 7.0 mph N11.3 kmh N 11.0 mph17.7 kmh 29.88 in1011.9 mb 0.01 in0.3 mm 0.00 in0.0 mm 0.33 in8.4 mm
03:24 PM 40.5°F4.7°C 35.8°F2.1°C 83% 2.0 mph NW3.2 kmh NW 6.0 mph9.7 kmh 29.89 in1012.2 mb 0.01 in0.3 mm 0.00 in0.0 mm 0.33 in8.4 mm
03:26 PM 40.4°F4.7°C 35.7°F2.1°C 83% 5.0 mph N8.0 kmh N 13.0 mph20.9 kmh 29.89 in1012.2 mb 0.02 in0.5 mm 0.30 in7.6 mm 0.34 in8.6 mm
03:28 PM 40.4°F4.7°C 35.4°F1.9°C 82% 10.0 mph NW16.1 kmh NW 15.0 mph24.1 kmh 29.89 in1012.2 mb 0.02 in0.5 mm 0.00 in0.0 mm 0.34 in8.6 mm
03:30 PM 40.4°F4.7°C 35.7°F2.1°C 83% 4.0 mph N6.4 kmh N 16.0 mph25.7 kmh 29.89 in1012.2 mb 0.02 in0.5 mm 0.00 in0.0 mm 0.34 in8.6 mm
03:32 PM 40.4°F4.7°C 35.7°F2.1°C 83% 7.0 mph NNW11.3 kmh NNW 12.0 mph19.3 kmh 29.89 in1012.2 mb 0.02 in0.5 mm 0.00 in0.0 mm 0.34 in8.6 mm
03:34 PM 40.4°F4.7°C 35.4°F1.9°C 82% 7.0 mph N11.3 kmh N 7.0 mph11.3 kmh 29.89 in1012.2 mb 0.02 in0.5 mm 0.00 in0.0 mm 0.34 in8.6 mm
03:36 PM 40.4°F4.7°C 35.7°F2.1°C 83% 10.0 mph N16.1 kmh N 11.0 mph17.7 kmh 29.89 in1012.2 mb 0.01 in0.3 mm 0.00 in0.0 mm 0.34 in8.6 mm
03:38 PM 40.4°F4.7°C 35.7°F2.1°C 83% 5.0 mph NE8.0 kmh NE 13.0 mph20.9 kmh 29.89 in1012.2 mb 0.01 in0.3 mm 0.00 in0.0 mm 0.34 in8.6 mm
03:40 PM 40.4°F4.7°C 35.7°F2.1°C 83% 8.0 mph NE12.9 kmh NE 12.0 mph19.3 kmh 29.89 in1012.2 mb 0.01 in0.3 mm 0.00 in0.0 mm 0.34 in8.6 mm
03:42 PM 40.4°F4.7°C 35.4°F1.9°C 82% 12.0 mph N19.3 kmh N 13.0 mph20.9 kmh 29.89 in1012.2 mb 0.01 in0.3 mm 0.00 in0.0 mm 0.34 in8.6 mm
03:44 PM 40.4°F4.7°C 35.4°F1.9°C 82% 5.0 mph NNE8.0 kmh NNE 10.0 mph16.1 kmh 29.89 in1012.2 mb 0.01 in0.3 mm 0.00 in0.0 mm 0.34 in8.6 mm
03:46 PM 40.4°F4.7°C 35.4°F1.9°C 82% 13.0 mph N20.9 kmh N 13.0 mph20.9 kmh 29.90 in1012.5 mb 0.01 in0.3 mm 0.00 in0.0 mm 0.34 in8.6 mm
03:48 PM 40.5°F4.7°C 35.5°F1.9°C 82% 9.0 mph NE14.5 kmh NE 9.0 mph14.5 kmh 29.90 in1012.5 mb 0.01 in0.3 mm 0.00 in0.0 mm 0.34 in8.6 mm
03:50 PM 40.5°F4.7°C 35.8°F2.1°C 83% 6.0 mph N9.7 kmh N 7.0 mph11.3 kmh 29.90 in1012.5 mb 0.01 in0.3 mm 0.00 in0.0 mm 0.34 in8.6 mm
03:52 PM 40.5°F4.7°C 35.8°F2.1°C 83% 4.0 mph N6.4 kmh N 12.0 mph19.3 kmh 29.90 in1012.5 mb 0.01 in0.3 mm 0.00 in0.0 mm 0.34 in8.6 mm
03:54 PM 40.5°F4.7°C 36.1°F2.3°C 84% 5.0 mph NNE8.0 kmh NNE 8.0 mph12.9 kmh 29.90 in1012.5 mb 0.01 in0.3 mm 0.00 in0.0 mm 0.34 in8.6 mm
03:56 PM 40.5°F4.7°C 35.8°F2.1°C 83% 8.0 mph NNE12.9 kmh NNE 13.0 mph20.9 kmh 29.90 in1012.5 mb 0.01 in0.3 mm 0.00 in0.0 mm 0.34 in8.6 mm
03:58 PM 40.6°F4.8°C 35.9°F2.2°C 83% 10.0 mph NE16.1 kmh NE 13.0 mph20.9 kmh 29.91 in1012.9 mb 0.01 in0.3 mm 0.00 in0.0 mm 0.34 in8.6 mm
04:00 PM 40.6°F4.8°C 35.9°F2.2°C 83% 11.0 mph NNW17.7 kmh NNW 12.0 mph19.3 kmh 29.91 in1012.9 mb 0.01 in0.3 mm 0.00 in0.0 mm 0.34 in8.6 mm
04:02 PM 40.6°F4.8°C 35.9°F2.2°C 83% 4.0 mph N6.4 kmh N 10.0 mph16.1 kmh 29.91 in1012.9 mb 0.01 in0.3 mm 0.00 in0.0 mm 0.34 in8.6 mm
04:04 PM 40.6°F4.8°C 35.9°F2.2°C 83% 5.0 mph N8.0 kmh N 5.0 mph8.0 kmh 29.91 in1012.9 mb 0.01 in0.3 mm 0.00 in0.0 mm 0.34 in8.6 mm
04:06 PM 40.6°F4.8°C 35.9°F2.2°C 83% 5.0 mph NE8.0 kmh NE 10.0 mph16.1 kmh 29.91 in1012.9 mb 0.01 in0.3 mm 0.00 in0.0 mm 0.34 in8.6 mm
04:08 PM 40.6°F4.8°C 35.9°F2.2°C 83% 15.0 mph N24.1 kmh N 15.0 mph24.1 kmh 29.91 in1012.9 mb 0.01 in0.3 mm 0.00 in0.0 mm 0.34 in8.6 mm
04:10 PM 40.6°F4.8°C 35.9°F2.2°C 83% 11.0 mph N17.7 kmh N 12.0 mph19.3 kmh 29.91 in1012.9 mb 0.01 in0.3 mm 0.00 in0.0 mm 0.34 in8.6 mm
04:12 PM 40.5°F4.7°C 35.8°F2.1°C 83% 10.0 mph NW16.1 kmh NW 13.0 mph20.9 kmh 29.91 in1012.9 mb 0.01 in0.3 mm 0.00 in0.0 mm 0.34 in8.6 mm
04:14 PM 40.6°F4.8°C 35.9°F2.2°C 83% 1.0 mph NNE1.6 kmh NNE 5.0 mph8.0 kmh 29.92 in1013.2 mb 0.01 in0.3 mm 0.00 in0.0 mm 0.34 in8.6 mm
04:16 PM 40.5°F4.7°C 36.1°F2.3°C 84% 5.0 mph NNE8.0 kmh NNE 5.0 mph8.0 kmh 29.92 in1013.2 mb 0.01 in0.3 mm 0.00 in0.0 mm 0.34 in8.6 mm
04:18 PM 40.6°F4.8°C 36.2°F2.3°C 84% 5.0 mph N8.0 kmh N 10.0 mph16.1 kmh 29.92 in1013.2 mb 0.01 in0.3 mm 0.00 in0.0 mm 0.34 in8.6 mm
04:20 PM 40.5°F4.7°C 36.1°F2.3°C 84% 3.0 mph N4.8 kmh N 5.0 mph8.0 kmh 29.92 in1013.2 mb 0.01 in0.3 mm 0.00 in0.0 mm 0.34 in8.6 mm
04:22 PM 40.5°F4.7°C 36.1°F2.3°C 84% 5.0 mph NW8.0 kmh NW 10.0 mph16.1 kmh 29.92 in1013.2 mb 0.01 in0.3 mm 0.00 in0.0 mm 0.34 in8.6 mm
04:24 PM 40.5°F4.7°C 36.1°F2.3°C 84% 5.0 mph N8.0 kmh N 5.0 mph8.0 kmh 29.92 in1013.2 mb 0.01 in0.3 mm 0.00 in0.0 mm 0.34 in8.6 mm
04:26 PM 40.5°F4.7°C 36.1°F2.3°C 84% 2.0 mph NE3.2 kmh NE 5.0 mph8.0 kmh 29.92 in1013.2 mb 0.01 in0.3 mm 0.00 in0.0 mm 0.34 in8.6 mm
04:28 PM 40.5°F4.7°C 36.1°F2.3°C 84% 5.0 mph N8.0 kmh N 9.0 mph14.5 kmh 29.92 in1013.2 mb 0.00 in0.0 mm 0.00 in0.0 mm 0.34 in8.6 mm
04:30 PM 40.5°F4.7°C 36.4°F2.4°C 85% 6.0 mph NW9.7 kmh NW 8.0 mph12.9 kmh 29.92 in1013.2 mb 0.00 in0.0 mm 0.00 in0.0 mm 0.34 in8.6 mm
04:32 PM 40.5°F4.7°C 36.1°F2.3°C 84% 6.0 mph NE9.7 kmh NE 6.0 mph9.7 kmh 29.92 in1013.2 mb 0.00 in0.0 mm 0.00 in0.0 mm 0.34 in8.6 mm
04:34 PM 40.5°F4.7°C 36.4°F2.4°C 85% 9.0 mph NNW14.5 kmh NNW 9.0 mph14.5 kmh 29.92 in1013.2 mb 0.00 in0.0 mm 0.00 in0.0 mm 0.34 in8.6 mm
04:36 PM 40.5°F4.7°C 36.1°F2.3°C 84% 6.0 mph N9.7 kmh N 6.0 mph9.7 kmh 29.91 in1012.9 mb 0.00 in0.0 mm 0.00 in0.0 mm 0.34 in8.6 mm
04:38 PM 40.4°F4.7°C 36.0°F2.2°C 84% 7.0 mph NNE11.3 kmh NNE 7.0 mph11.3 kmh 29.92 in1013.2 mb 0.00 in0.0 mm 0.00 in0.0 mm 0.34 in8.6 mm
04:40 PM 40.4°F4.7°C 36.0°F2.2°C 84% 4.0 mph NNE6.4 kmh NNE 4.0 mph6.4 kmh 29.92 in1013.2 mb 0.01 in0.3 mm 0.30 in7.6 mm 0.35 in8.9 mm
04:42 PM 40.4°F4.7°C 36.0°F2.2°C 84% 7.0 mph NW11.3 kmh NW 7.0 mph11.3 kmh 29.92 in1013.2 mb 0.01 in0.3 mm 0.00 in0.0 mm 0.35 in8.9 mm
04:44 PM 40.4°F4.7°C 36.0°F2.2°C 84% 5.0 mph NE8.0 kmh NE 5.0 mph8.0 kmh 29.92 in1013.2 mb 0.01 in0.3 mm 0.00 in0.0 mm 0.35 in8.9 mm
04:46 PM 40.4°F4.7°C 36.3°F2.4°C 85% 2.0 mph NE3.2 kmh NE 2.0 mph3.2 kmh 29.92 in1013.2 mb 0.01 in0.3 mm 0.00 in0.0 mm 0.35 in8.9 mm
04:48 PM 40.4°F4.7°C 36.3°F2.4°C 85% 5.0 mph N8.0 kmh N 5.0 mph8.0 kmh 29.92 in1013.2 mb 0.01 in0.3 mm 0.00 in0.0 mm 0.35 in8.9 mm
04:50 PM 40.5°F4.7°C 36.4°F2.4°C 85% 5.0 mph N8.0 kmh N 6.0 mph9.7 kmh 29.92 in1013.2 mb 0.01 in0.3 mm 0.00 in0.0 mm 0.35 in8.9 mm
04:52 PM 40.5°F4.7°C 36.4°F2.4°C 85% 5.0 mph N8.0 kmh N 5.0 mph8.0 kmh 29.93 in1013.5 mb 0.01 in0.3 mm 0.00 in0.0 mm 0.35 in8.9 mm
04:54 PM 40.5°F4.7°C 36.4°F2.4°C 85% 6.0 mph N9.7 kmh N 6.0 mph9.7 kmh 29.93 in1013.5 mb 0.01 in0.3 mm 0.00 in0.0 mm 0.35 in8.9 mm
04:56 PM 40.5°F4.7°C 36.4°F2.4°C 85% 4.0 mph NNW6.4 kmh NNW 4.0 mph6.4 kmh 29.93 in1013.5 mb 0.01 in0.3 mm 0.00 in0.0 mm 0.35 in8.9 mm
04:58 PM 40.5°F4.7°C 36.4°F2.4°C 85% 10.0 mph NW16.1 kmh NW 10.0 mph16.1 kmh 29.93 in1013.5 mb 0.01 in0.3 mm 0.00 in0.0 mm 0.35 in8.9 mm
05:00 PM 40.4°F4.7°C 36.3°F2.4°C 85% 8.0 mph NW12.9 kmh NW 8.0 mph12.9 kmh 29.93 in1013.5 mb 0.01 in0.3 mm 0.00 in0.0 mm 0.35 in8.9 mm
05:02 PM 40.4°F4.7°C 36.3°F2.4°C 85% 10.0 mph NW16.1 kmh NW 10.0 mph16.1 kmh 29.94 in1013.9 mb 0.01 in0.3 mm 0.00 in0.0 mm 0.35 in8.9 mm
05:04 PM 40.3°F4.6°C 36.2°F2.3°C 85% 4.0 mph NW6.4 kmh NW 12.0 mph19.3 kmh 29.94 in1013.9 mb 0.01 in0.3 mm 0.00 in0.0 mm 0.35 in8.9 mm
05:06 PM 40.2°F4.6°C 36.1°F2.3°C 85% 6.0 mph NW9.7 kmh NW 14.0 mph22.5 kmh 29.94 in1013.9 mb 0.01 in0.3 mm 0.00 in0.0 mm 0.35 in8.9 mm
05:08 PM 40.2°F4.6°C 36.4°F2.4°C 86% 6.0 mph NNE9.7 kmh NNE 7.0 mph11.3 kmh 29.94 in1013.9 mb 0.01 in0.3 mm 0.00 in0.0 mm 0.35 in8.9 mm
05:10 PM 40.1°F4.5°C 36.3°F2.4°C 86% 3.0 mph NNE4.8 kmh NNE 4.0 mph6.4 kmh 29.94 in1013.9 mb 0.01 in0.3 mm 0.00 in0.0 mm 0.35 in8.9 mm
05:12 PM 40.0°F4.4°C 36.5°F2.5°C 87% 4.0 mph NNW6.4 kmh NNW 4.0 mph6.4 kmh 29.94 in1013.9 mb 0.01 in0.3 mm 0.00 in0.0 mm 0.35 in8.9 mm
05:14 PM 40.0°F4.4°C 36.5°F2.5°C 87% 6.0 mph NNW9.7 kmh NNW 12.0 mph19.3 kmh 29.95 in1014.2 mb 0.01 in0.3 mm 0.00 in0.0 mm 0.35 in8.9 mm
05:16 PM 39.9°F4.4°C 36.4°F2.4°C 87% 5.0 mph N8.0 kmh N 10.0 mph16.1 kmh 29.94 in1013.9 mb 0.01 in0.3 mm 0.00 in0.0 mm 0.35 in8.9 mm
05:18 PM 39.9°F4.4°C 36.4°F2.4°C 87% 5.0 mph N8.0 kmh N 5.0 mph8.0 kmh 29.94 in1013.9 mb 0.01 in0.3 mm 0.00 in0.0 mm 0.35 in8.9 mm
05:20 PM 39.9°F4.4°C 36.4°F2.4°C 87% 3.0 mph NE4.8 kmh NE 5.0 mph8.0 kmh 29.94 in1013.9 mb 0.01 in0.3 mm 0.00 in0.0 mm 0.35 in8.9 mm
05:22 PM 39.8°F4.3°C 36.3°F2.4°C 87% 6.0 mph NW9.7 kmh NW 12.0 mph19.3 kmh 29.94 in1013.9 mb 0.01 in0.3 mm 0.00 in0.0 mm 0.35 in8.9 mm
05:24 PM 39.8°F4.3°C 36.0°F2.2°C 86% 4.0 mph NNE6.4 kmh NNE 4.0 mph6.4 kmh 29.94 in1013.9 mb 0.01 in0.3 mm 0.00 in0.0 mm 0.35 in8.9 mm
05:26 PM 39.8°F4.3°C 36.3°F2.4°C 87% 5.0 mph NNW8.0 kmh NNW 5.0 mph8.0 kmh 29.95 in1014.2 mb 0.01 in0.3 mm 0.00 in0.0 mm 0.35 in8.9 mm
05:28 PM 39.7°F4.3°C 36.2°F2.3°C 87% 4.0 mph NNW6.4 kmh NNW 7.0 mph11.3 kmh 29.95 in1014.2 mb 0.01 in0.3 mm 0.00 in0.0 mm 0.35 in8.9 mm
05:30 PM 39.7°F4.3°C 36.2°F2.3°C 87% 6.0 mph NW9.7 kmh NW 6.0 mph9.7 kmh 29.95 in1014.2 mb 0.01 in0.3 mm 0.00 in0.0 mm 0.35 in8.9 mm
05:32 PM 39.7°F4.3°C 36.2°F2.3°C 87% 5.0 mph NE8.0 kmh NE 7.0 mph11.3 kmh 29.95 in1014.2 mb 0.01 in0.3 mm 0.00 in0.0 mm 0.35 in8.9 mm
05:34 PM 39.7°F4.3°C 35.9°F2.2°C 86% 11.0 mph NW17.7 kmh NW 13.0 mph20.9 kmh 29.95 in1014.2 mb 0.01 in0.3 mm 0.00 in0.0 mm 0.35 in8.9 mm
05:36 PM 39.6°F4.2°C 35.8°F2.1°C 86% 5.0 mph NW8.0 kmh NW 6.0 mph9.7 kmh 29.95 in1014.2 mb 0.01 in0.3 mm 0.00 in0.0 mm 0.35 in8.9 mm
05:38 PM 39.6°F4.2°C 35.8°F2.1°C 86% 4.0 mph N6.4 kmh N 4.0 mph6.4 kmh 29.95 in1014.2 mb 0.01 in0.3 mm 0.00 in0.0 mm 0.35 in8.9 mm
05:40 PM 39.6°F4.2°C 35.8°F2.1°C 86% 4.0 mph N6.4 kmh N 6.0 mph9.7 kmh 29.95 in1014.2 mb 0.00 in0.0 mm 0.00 in0.0 mm 0.35 in8.9 mm
05:42 PM 39.5°F4.2°C 35.7°F2.1°C 86% 3.0 mph N4.8 kmh N 4.0 mph6.4 kmh 29.95 in1014.2 mb 0.00 in0.0 mm 0.00 in0.0 mm 0.35 in8.9 mm
05:44 PM 39.5°F4.2°C 35.7°F2.1°C 86% 3.0 mph N4.8 kmh N 4.0 mph6.4 kmh 29.95 in1014.2 mb 0.00 in0.0 mm 0.00 in0.0 mm 0.35 in8.9 mm
05:46 PM 39.5°F4.2°C 35.7°F2.1°C 86% 9.0 mph NW14.5 kmh NW 9.0 mph14.5 kmh 29.95 in1014.2 mb 0.00 in0.0 mm 0.00 in0.0 mm 0.35 in8.9 mm
05:48 PM 39.5°F4.2°C 35.7°F2.1°C 86% 3.0 mph N4.8 kmh N 3.0 mph4.8 kmh 29.95 in1014.2 mb 0.00 in0.0 mm 0.00 in0.0 mm 0.35 in8.9 mm
05:50 PM 39.5°F4.2°C 35.4°F1.9°C 85% 4.0 mph N6.4 kmh N 4.0 mph6.4 kmh 29.95 in1014.2 mb 0.00 in0.0 mm 0.00 in0.0 mm 0.35 in8.9 mm
05:52 PM 39.5°F4.2°C 35.4°F1.9°C 85% 4.0 mph N6.4 kmh N 5.0 mph8.0 kmh 29.96 in1014.6 mb 0.00 in0.0 mm 0.00 in0.0 mm 0.35 in8.9 mm
05:54 PM 39.5°F4.2°C 35.7°F2.1°C 86% 4.0 mph NNE6.4 kmh NNE 4.0 mph6.4 kmh 29.96 in1014.6 mb 0.00 in0.0 mm 0.00 in0.0 mm 0.35 in8.9 mm
05:56 PM 39.5°F4.2°C 35.4°F1.9°C 85% 4.0 mph NW6.4 kmh NW 4.0 mph6.4 kmh 29.96 in1014.6 mb 0.00 in0.0 mm 0.00 in0.0 mm 0.35 in8.9 mm
05:58 PM 39.5°F4.2°C 35.7°F2.1°C 86% 9.0 mph N14.5 kmh N 9.0 mph14.5 kmh 29.96 in1014.6 mb 0.00 in0.0 mm 0.00 in0.0 mm 0.35 in8.9 mm
06:00 PM 39.5°F4.2°C 35.4°F1.9°C 85% 3.0 mph N4.8 kmh N 5.0 mph8.0 kmh 29.96 in1014.6 mb 0.00 in0.0 mm 0.00 in0.0 mm 0.35 in8.9 mm
06:02 PM 39.4°F4.1°C 35.3°F1.8°C 85% 10.0 mph N16.1 kmh N 10.0 mph16.1 kmh 29.96 in1014.6 mb 0.00 in0.0 mm 0.00 in0.0 mm 0.35 in8.9 mm
06:04 PM 39.4°F4.1°C 35.3°F1.8°C 85% 10.0 mph NW16.1 kmh NW 14.0 mph22.5 kmh 29.96 in1014.6 mb 0.00 in0.0 mm 0.00 in0.0 mm 0.35 in8.9 mm
06:06 PM 39.4°F4.1°C 35.3°F1.8°C 85% 5.0 mph NNE8.0 kmh NNE 5.0 mph8.0 kmh 29.96 in1014.6 mb 0.00 in0.0 mm 0.00 in0.0 mm 0.35 in8.9 mm
06:08 PM 39.3°F4.1°C 35.2°F1.8°C 85% 7.0 mph N11.3 kmh N 7.0 mph11.3 kmh 29.96 in1014.6 mb 0.00 in0.0 mm 0.00 in0.0 mm 0.35 in8.9 mm
06:10 PM 39.3°F4.1°C 35.2°F1.8°C 85% 4.0 mph NE6.4 kmh NE 9.0 mph14.5 kmh 29.96 in1014.6 mb 0.00 in0.0 mm 0.00 in0.0 mm 0.35 in8.9 mm
06:12 PM 39.3°F4.1°C 35.2°F1.8°C 85% 2.0 mph NNW3.2 kmh NNW 2.0 mph3.2 kmh 29.96 in1014.6 mb 0.00 in0.0 mm 0.00 in0.0 mm 0.35 in8.9 mm
06:14 PM 39.3°F4.1°C 35.5°F1.9°C 86% 5.0 mph N8.0 kmh N 5.0 mph8.0 kmh 29.96 in1014.6 mb 0.00 in0.0 mm 0.00 in0.0 mm 0.35 in8.9 mm
06:16 PM 39.3°F4.1°C 35.2°F1.8°C 85% 11.0 mph NW17.7 kmh NW 11.0 mph17.7 kmh 29.96 in1014.6 mb 0.00 in0.0 mm 0.00 in0.0 mm 0.35 in8.9 mm
06:18 PM 39.3°F4.1°C 35.2°F1.8°C 85% 9.0 mph NW14.5 kmh NW 9.0 mph14.5 kmh 29.97 in1014.9 mb 0.00 in0.0 mm 0.00 in0.0 mm 0.35 in8.9 mm
06:20 PM 39.2°F4.0°C 35.1°F1.7°C 85% 8.0 mph NE12.9 kmh NE 9.0 mph14.5 kmh 29.96 in1014.6 mb 0.00 in0.0 mm 0.00 in0.0 mm 0.35 in8.9 mm
06:22 PM 39.2°F4.0°C 35.1°F1.7°C 85% 6.0 mph N9.7 kmh N 6.0 mph9.7 kmh 29.96 in1014.6 mb 0.00 in0.0 mm 0.00 in0.0 mm 0.35 in8.9 mm
06:24 PM 39.2°F4.0°C 35.1°F1.7°C 85% 3.0 mph NE4.8 kmh NE 7.0 mph11.3 kmh 29.97 in1014.9 mb 0.00 in0.0 mm 0.00 in0.0 mm 0.35 in8.9 mm
06:26 PM 39.1°F3.9°C 35.3°F1.8°C 86% 4.0 mph NE6.4 kmh NE 4.0 mph6.4 kmh 29.97 in1014.9 mb 0.00 in0.0 mm 0.00 in0.0 mm 0.35 in8.9 mm
06:28 PM 39.1°F3.9°C 35.3°F1.8°C 86% 4.0 mph NNW6.4 kmh NNW 4.0 mph6.4 kmh 29.96 in1014.6 mb 0.00 in0.0 mm 0.00 in0.0 mm 0.35 in8.9 mm
06:30 PM 39.0°F3.9°C 35.2°F1.8°C 86% 5.0 mph WNW8.0 kmh WNW 7.0 mph11.3 kmh 29.97 in1014.9 mb 0.00 in0.0 mm 0.00 in0.0 mm 0.35 in8.9 mm
06:32 PM 39.0°F3.9°C 35.2°F1.8°C 86% 5.0 mph N8.0 kmh N 5.0 mph8.0 kmh 29.97 in1014.9 mb 0.00 in0.0 mm 0.00 in0.0 mm 0.35 in8.9 mm
06:34 PM 39.0°F3.9°C 35.2°F1.8°C 86% 3.0 mph N4.8 kmh N 5.0 mph8.0 kmh 29.97 in1014.9 mb 0.00 in0.0 mm 0.00 in0.0 mm 0.35 in8.9 mm
06:36 PM 38.9°F3.8°C 35.1°F1.7°C 86% 6.0 mph N9.7 kmh N 7.0 mph11.3 kmh 29.97 in1014.9 mb 0.00 in0.0 mm 0.00 in0.0 mm 0.35 in8.9 mm
06:38 PM 38.9°F3.8°C 35.1°F1.7°C 86% 6.0 mph NNE9.7 kmh NNE 9.0 mph14.5 kmh 29.97 in1014.9 mb 0.00 in0.0 mm 0.00 in0.0 mm 0.35 in8.9 mm
06:40 PM 38.9°F3.8°C 35.1°F1.7°C 86% 5.0 mph NE8.0 kmh NE 9.0 mph14.5 kmh 29.97 in1014.9 mb 0.00 in0.0 mm 0.00 in0.0 mm 0.35 in8.9 mm
06:42 PM 38.8°F3.8°C 35.0°F1.7°C 86% 7.0 mph NW11.3 kmh NW 9.0 mph14.5 kmh 29.97 in1014.9 mb 0.00 in0.0 mm 0.00 in0.0 mm 0.35 in8.9 mm
06:44 PM 38.8°F3.8°C 35.0°F1.7°C 86% 5.0 mph NNW8.0 kmh NNW 5.0 mph8.0 kmh 29.97 in1014.9 mb 0.00 in0.0 mm 0.00 in0.0 mm 0.35 in8.9 mm
06:46 PM 38.8°F3.8°C 35.0°F1.7°C 86% 5.0 mph N8.0 kmh N 5.0 mph8.0 kmh 29.97 in1014.9 mb 0.00 in0.0 mm 0.00 in0.0 mm 0.35 in8.9 mm
06:48 PM 38.8°F3.8°C 35.0°F1.7°C 86% 2.0 mph NNW3.2 kmh NNW 6.0 mph9.7 kmh 29.97 in1014.9 mb 0.00 in0.0 mm 0.00 in0.0 mm 0.35 in8.9 mm
06:50 PM 38.8°F3.8°C 35.0°F1.7°C 86% 4.0 mph N6.4 kmh N 6.0 mph9.7 kmh 29.97 in1014.9 mb 0.00 in0.0 mm 0.00 in0.0 mm 0.35 in8.9 mm
06:52 PM 38.8°F3.8°C 35.0°F1.7°C 86% 5.0 mph NNE8.0 kmh NNE 10.0 mph16.1 kmh 29.97 in1014.9 mb 0.00 in0.0 mm 0.00 in0.0 mm 0.35 in8.9 mm
06:54 PM 38.7°F3.7°C 34.9°F1.6°C 86% 2.0 mph NNW3.2 kmh NNW 3.0 mph4.8 kmh 29.97 in1014.9 mb 0.00 in0.0 mm 0.00 in0.0 mm 0.35 in8.9 mm
06:56 PM 38.7°F3.7°C 34.9°F1.6°C 86% 4.0 mph NW6.4 kmh NW 8.0 mph12.9 kmh 29.97 in1014.9 mb 0.00 in0.0 mm 0.00 in0.0 mm 0.35 in8.9 mm
06:58 PM 38.7°F3.7°C 34.9°F1.6°C 86% 2.0 mph N3.2 kmh N 4.0 mph6.4 kmh 29.97 in1014.9 mb 0.00 in0.0 mm 0.00 in0.0 mm 0.35 in8.9 mm
07:00 PM 38.7°F3.7°C 34.9°F1.6°C 86% 4.0 mph N6.4 kmh N 6.0 mph9.7 kmh 29.98 in1015.2 mb 0.00 in0.0 mm 0.00 in0.0 mm 0.35 in8.9 mm
07:02 PM 38.7°F3.7°C 34.9°F1.6°C 86% 4.0 mph NNW6.4 kmh NNW 4.0 mph6.4 kmh 29.98 in1015.2 mb 0.00 in0.0 mm 0.00 in0.0 mm 0.35 in8.9 mm
07:04 PM 38.7°F3.7°C 35.2°F1.8°C 87% 3.0 mph N4.8 kmh N 6.0 mph9.7 kmh 29.98 in1015.2 mb 0.00 in0.0 mm 0.00 in0.0 mm 0.35 in8.9 mm
07:06 PM 38.7°F3.7°C 35.2°F1.8°C 87% 5.0 mph N8.0 kmh N 13.0 mph20.9 kmh 29.98 in1015.2 mb 0.00 in0.0 mm 0.00 in0.0 mm 0.35 in8.9 mm
07:08 PM 38.7°F3.7°C 34.9°F1.6°C 86% 3.0 mph NW4.8 kmh NW 4.0 mph6.4 kmh 29.98 in1015.2 mb 0.00 in0.0 mm 0.00 in0.0 mm 0.35 in8.9 mm
07:10 PM 38.7°F3.7°C 35.2°F1.8°C 87% 5.0 mph NNW8.0 kmh NNW 9.0 mph14.5 kmh 29.98 in1015.2 mb 0.00 in0.0 mm 0.00 in0.0 mm 0.35 in8.9 mm
07:12 PM 38.7°F3.7°C 34.9°F1.6°C 86% 5.0 mph N8.0 kmh N 7.0 mph11.3 kmh 29.98 in1015.2 mb 0.00 in0.0 mm 0.00 in0.0 mm 0.35 in8.9 mm
07:14 PM 38.7°F3.7°C 35.2°F1.8°C 87% 3.0 mph N4.8 kmh N 4.0 mph6.4 kmh 29.98 in1015.2 mb 0.00 in0.0 mm 0.00 in0.0 mm 0.35 in8.9 mm
07:16 PM 38.7°F3.7°C 35.2°F1.8°C 87% 3.0 mph N4.8 kmh N 4.0 mph6.4 kmh 29.98 in1015.2 mb 0.00 in0.0 mm 0.00 in0.0 mm 0.35 in8.9 mm
07:18 PM 38.7°F3.7°C 35.2°F1.8°C 87% 6.0 mph N9.7 kmh N 6.0 mph9.7 kmh 29.98 in1015.2 mb 0.00 in0.0 mm 0.00 in0.0 mm 0.35 in8.9 mm
07:20 PM 38.7°F3.7°C 35.2°F1.8°C 87% 3.0 mph N4.8 kmh N 4.0 mph6.4 kmh 29.98 in1015.2 mb 0.00 in0.0 mm 0.00 in0.0 mm 0.35 in8.9 mm
07:22 PM 38.7°F3.7°C 35.2°F1.8°C 87% 4.0 mph NE6.4 kmh NE 5.0 mph8.0 kmh 29.98 in1015.2 mb 0.00 in0.0 mm 0.00 in0.0 mm 0.35 in8.9 mm
07:24 PM 38.7°F3.7°C 35.2°F1.8°C 87% 7.0 mph NW11.3 kmh NW 9.0 mph14.5 kmh 29.98 in1015.2 mb 0.00 in0.0 mm 0.00 in0.0 mm 0.35 in8.9 mm
07:26 PM 38.7°F3.7°C 35.2°F1.8°C 87% 2.0 mph N3.2 kmh N 9.0 mph14.5 kmh 29.98 in1015.2 mb 0.00 in0.0 mm 0.00 in0.0 mm 0.35 in8.9 mm
07:28 PM 38.7°F3.7°C 35.2°F1.8°C 87% 9.0 mph N14.5 kmh N 9.0 mph14.5 kmh 29.98 in1015.2 mb 0.00 in0.0 mm 0.00 in0.0 mm 0.35 in8.9 mm
07:30 PM 38.7°F3.7°C 35.2°F1.8°C 87% 3.0 mph NNW4.8 kmh NNW 8.0 mph12.9 kmh 29.98 in1015.2 mb 0.00 in0.0 mm 0.00 in0.0 mm 0.35 in8.9 mm
07:32 PM 38.7°F3.7°C 35.2°F1.8°C 87% 4.0 mph NNW6.4 kmh NNW 4.0 mph6.4 kmh 29.98 in1015.2 mb 0.00 in0.0 mm 0.00 in0.0 mm 0.35 in8.9 mm
07:34 PM 38.7°F3.7°C 35.2°F1.8°C 87% 3.0 mph N4.8 kmh N 3.0 mph4.8 kmh 29.98 in1015.2 mb 0.00 in0.0 mm 0.00 in0.0 mm 0.35 in8.9 mm
07:36 PM 38.7°F3.7°C 35.2°F1.8°C 87% 3.0 mph N4.8 kmh N 4.0 mph6.4 kmh 29.98 in1015.2 mb 0.00 in0.0 mm 0.00 in0.0 mm 0.35 in8.9 mm
07:38 PM 38.7°F3.7°C 35.2°F1.8°C 87% 4.0 mph NNW6.4 kmh NNW 6.0 mph9.7 kmh 29.98 in1015.2 mb 0.00 in0.0 mm 0.00 in0.0 mm 0.35 in8.9 mm
07:40 PM 38.7°F3.7°C 35.2°F1.8°C 87% 6.0 mph N9.7 kmh N 6.0 mph9.7 kmh 29.99 in1015.6 mb 0.00 in0.0 mm 0.00 in0.0 mm 0.35 in8.9 mm
07:42 PM 38.7°F3.7°C 35.2°F1.8°C 87% 4.0 mph N6.4 kmh N 5.0 mph8.0 kmh 29.99 in1015.6 mb 0.00 in0.0 mm 0.00 in0.0 mm 0.35 in8.9 mm
07:44 PM 38.7°F3.7°C 35.2°F1.8°C 87% 3.0 mph N4.8 kmh N 6.0 mph9.7 kmh 29.99 in1015.6 mb 0.00 in0.0 mm 0.00 in0.0 mm 0.35 in8.9 mm
07:46 PM 38.7°F3.7°C 35.2°F1.8°C 87% 4.0 mph N6.4 kmh N 4.0 mph6.4 kmh 29.99 in1015.6 mb 0.00 in0.0 mm 0.00 in0.0 mm 0.35 in8.9 mm
07:48 PM 38.7°F3.7°C 35.2°F1.8°C 87% 2.0 mph N3.2 kmh N 3.0 mph4.8 kmh 29.99 in1015.6 mb 0.00 in0.0 mm 0.00 in0.0 mm 0.35 in8.9 mm
07:50 PM 38.7°F3.7°C 35.2°F1.8°C 87% 1.0 mph N1.6 kmh N 2.0 mph3.2 kmh 29.99 in1015.6 mb 0.00 in0.0 mm 0.00 in0.0 mm 0.35 in8.9 mm
07:52 PM 38.7°F3.7°C 35.2°F1.8°C 87% 4.0 mph N6.4 kmh N 4.0 mph6.4 kmh 29.99 in1015.6 mb 0.00 in0.0 mm 0.00 in0.0 mm 0.35 in8.9 mm
07:54 PM 38.7°F3.7°C 35.2°F1.8°C 87% 4.0 mph NNW6.4 kmh NNW 4.0 mph6.4 kmh 29.99 in1015.6 mb 0.00 in0.0 mm 0.00 in0.0 mm 0.35 in8.9 mm
07:56 PM 38.7°F3.7°C 35.2°F1.8°C 87% 3.0 mph NNW4.8 kmh NNW 3.0 mph4.8 kmh 29.99 in1015.6 mb 0.00 in0.0 mm 0.00 in0.0 mm 0.35 in8.9 mm
07:58 PM 38.7°F3.7°C 35.2°F1.8°C 87% 5.0 mph WNW8.0 kmh WNW 9.0 mph14.5 kmh 29.99 in1015.6 mb 0.00 in0.0 mm 0.00 in0.0 mm 0.35 in8.9 mm
08:00 PM 38.6°F3.7°C 35.1°F1.7°C 87% 4.0 mph N6.4 kmh N 4.0 mph6.4 kmh 29.99 in1015.6 mb 0.00 in0.0 mm 0.00 in0.0 mm 0.35 in8.9 mm
08:02 PM 38.6°F3.7°C 35.1°F1.7°C 87% 1.0 mph NE1.6 kmh NE 2.0 mph3.2 kmh 29.99 in1015.6 mb 0.00 in0.0 mm 0.00 in0.0 mm 0.35 in8.9 mm
08:04 PM 38.6°F3.7°C 35.1°F1.7°C 87% Calm Calm -- 29.99 in1015.6 mb 0.00 in0.0 mm 0.00 in0.0 mm 0.35 in8.9 mm
08:06 PM 38.6°F3.7°C 35.1°F1.7°C 87% 2.0 mph NE3.2 kmh NE 4.0 mph6.4 kmh 29.99 in1015.6 mb 0.00 in0.0 mm 0.00 in0.0 mm 0.35 in8.9 mm
08:08 PM 38.6°F3.7°C 35.1°F1.7°C 87% 4.0 mph N6.4 kmh N 5.0 mph8.0 kmh 29.99 in1015.6 mb 0.00 in0.0 mm 0.00 in0.0 mm 0.35 in8.9 mm
08:10 PM 38.6°F3.7°C 35.1°F1.7°C 87% 5.0 mph N8.0 kmh N 5.0 mph8.0 kmh 29.99 in1015.6 mb 0.00 in0.0 mm 0.00 in0.0 mm 0.35 in8.9 mm
08:12 PM 38.6°F3.7°C 35.1°F1.7°C 87% Calm Calm -- 29.99 in1015.6 mb 0.00 in0.0 mm 0.00 in0.0 mm 0.35 in8.9 mm
08:14 PM 38.6°F3.7°C 35.1°F1.7°C 87% 5.0 mph N8.0 kmh N 7.0 mph11.3 kmh 29.99 in1015.6 mb 0.00 in0.0 mm 0.00 in0.0 mm 0.35 in8.9 mm
08:16 PM 38.6°F3.7°C 35.1°F1.7°C 87% 4.0 mph N6.4 kmh N 4.0 mph6.4 kmh 29.99 in1015.6 mb 0.00 in0.0 mm 0.00 in0.0 mm 0.35 in8.9 mm
08:18 PM 38.6°F3.7°C 35.1°F1.7°C 87% 3.0 mph N4.8 kmh N 4.0 mph6.4 kmh 29.99 in1015.6 mb 0.00 in0.0 mm 0.00 in0.0 mm 0.35 in8.9 mm
08:20 PM 38.6°F3.7°C 35.1°F1.7°C 87% Calm Calm 2.0 mph3.2 kmh 29.99 in1015.6 mb 0.00 in0.0 mm 0.00 in0.0 mm 0.35 in8.9 mm
08:22 PM 38.6°F3.7°C 35.1°F1.7°C 87% 2.0 mph N3.2 kmh N 4.0 mph6.4 kmh 29.99 in1015.6 mb 0.00 in0.0 mm 0.00 in0.0 mm 0.35 in8.9 mm
08:24 PM 38.6°F3.7°C 35.1°F1.7°C 87% 2.0 mph N3.2 kmh N 4.0 mph6.4 kmh 29.98 in1015.2 mb 0.00 in0.0 mm 0.00 in0.0 mm 0.35 in8.9 mm
08:26 PM 38.6°F3.7°C 35.1°F1.7°C 87% 2.0 mph N3.2 kmh N 2.0 mph3.2 kmh 29.98 in1015.2 mb 0.00 in0.0 mm 0.00 in0.0 mm 0.35 in8.9 mm
08:28 PM 38.6°F3.7°C 35.1°F1.7°C 87% 4.0 mph N6.4 kmh N 4.0 mph6.4 kmh 29.98 in1015.2 mb 0.00 in0.0 mm 0.00 in0.0 mm 0.35 in8.9 mm
08:30 PM 38.6°F3.7°C 35.1°F1.7°C 87% 2.0 mph N3.2 kmh N 2.0 mph3.2 kmh 29.98 in1015.2 mb 0.00 in0.0 mm 0.00 in0.0 mm 0.35 in8.9 mm
08:32 PM 38.6°F3.7°C 35.1°F1.7°C 87% Calm Calm 1.0 mph1.6 kmh 29.98 in1015.2 mb 0.00 in0.0 mm 0.00 in0.0 mm 0.35 in8.9 mm
08:34 PM 38.6°F3.7°C 35.1°F1.7°C 87% 2.0 mph N3.2 kmh N 2.0 mph3.2 kmh 29.98 in1015.2 mb 0.00 in0.0 mm 0.00 in0.0 mm 0.35 in8.9 mm
08:36 PM 38.5°F3.6°C 35.0°F1.7°C 87% 4.0 mph N6.4 kmh N 4.0 mph6.4 kmh 29.98 in1015.2 mb 0.00 in0.0 mm 0.00 in0.0 mm 0.35 in8.9 mm
08:38 PM 38.4°F3.6°C 34.9°F1.6°C 87% 2.0 mph N3.2 kmh N 3.0 mph4.8 kmh 29.98 in1015.2 mb 0.00 in0.0 mm 0.00 in0.0 mm 0.35 in8.9 mm
08:40 PM 38.4°F3.6°C 34.9°F1.6°C 87% 2.0 mph N3.2 kmh N 2.0 mph3.2 kmh 29.98 in1015.2 mb 0.00 in0.0 mm 0.00 in0.0 mm 0.35 in8.9 mm
08:42 PM 38.4°F3.6°C 34.9°F1.6°C 87% 4.0 mph N6.4 kmh N 4.0 mph6.4 kmh 29.98 in1015.2 mb 0.00 in0.0 mm 0.00 in0.0 mm 0.35 in8.9 mm
08:44 PM 38.3°F3.5°C 34.8°F1.6°C 87% 1.0 mph N1.6 kmh N 2.0 mph3.2 kmh 29.98 in1015.2 mb 0.00 in0.0 mm 0.00 in0.0 mm 0.35 in8.9 mm
08:46 PM 38.3°F3.5°C 34.8°F1.6°C 87% 2.0 mph N3.2 kmh N 2.0 mph3.2 kmh 29.98 in1015.2 mb 0.00 in0.0 mm 0.00 in0.0 mm 0.35 in8.9 mm
08:48 PM 38.3°F3.5°C 34.8°F1.6°C 87% 2.0 mph N3.2 kmh N 2.0 mph3.2 kmh 29.98 in1015.2 mb 0.00 in0.0 mm 0.00 in0.0 mm 0.35 in8.9 mm
08:50 PM 38.2°F3.4°C 34.7°F1.5°C 87% 4.0 mph NNW6.4 kmh NNW 6.0 mph9.7 kmh 29.98 in1015.2 mb 0.00 in0.0 mm 0.00 in0.0 mm 0.35 in8.9 mm
08:52 PM 38.2°F3.4°C 34.7°F1.5°C 87% 1.0 mph NNW1.6 kmh NNW 3.0 mph4.8 kmh 29.98 in1015.2 mb 0.00 in0.0 mm 0.00 in0.0 mm 0.35 in8.9 mm
08:54 PM 38.2°F3.4°C 34.7°F1.5°C 87% 4.0 mph N6.4 kmh N 9.0 mph14.5 kmh 29.98 in1015.2 mb 0.00 in0.0 mm 0.00 in0.0 mm 0.35 in8.9 mm
08:56 PM 38.1°F3.4°C 36.0°F2.2°C 92% 2.0 mph N3.2 kmh N 4.0 mph6.4 kmh 29.98 in1015.2 mb 0.00 in0.0 mm 0.00 in0.0 mm 0.35 in8.9 mm
08:58 PM 38.1°F3.4°C 34.6°F1.4°C 87% 4.0 mph N6.4 kmh N 4.0 mph6.4 kmh 29.98 in1015.2 mb 0.00 in0.0 mm 0.00 in0.0 mm 0.35 in8.9 mm
09:00 PM 38.0°F3.3°C 34.5°F1.4°C 87% 6.0 mph N9.7 kmh N 7.0 mph11.3 kmh 29.98 in1015.2 mb 0.00 in0.0 mm 0.00 in0.0 mm 0.35 in8.9 mm
09:02 PM 38.0°F3.3°C 34.5°F1.4°C 87% 2.0 mph N3.2 kmh N 3.0 mph4.8 kmh 29.98 in1015.2 mb 0.00 in0.0 mm 0.00 in0.0 mm 0.35 in8.9 mm
09:04 PM 38.0°F3.3°C 34.5°F1.4°C 87% 3.0 mph N4.8 kmh N 4.0 mph6.4 kmh 29.98 in1015.2 mb 0.00 in0.0 mm 0.00 in0.0 mm 0.35 in8.9 mm
09:06 PM 37.9°F3.3°C 34.4°F1.3°C 87% 2.0 mph N3.2 kmh N 4.0 mph6.4 kmh 29.98 in1015.2 mb 0.00 in0.0 mm 0.00 in0.0 mm 0.35 in8.9 mm
09:08 PM 37.9°F3.3°C 34.4°F1.3°C 87% 3.0 mph N4.8 kmh N 4.0 mph6.4 kmh 29.99 in1015.6 mb 0.00 in0.0 mm 0.00 in0.0 mm 0.35 in8.9 mm
09:10 PM 37.9°F3.3°C 34.4°F1.3°C 87% 2.0 mph NNW3.2 kmh NNW 5.0 mph8.0 kmh 30.00 in1015.9 mb 0.00 in0.0 mm 0.00 in0.0 mm 0.35 in8.9 mm
09:12 PM 37.9°F3.3°C 34.7°F1.5°C 88% 3.0 mph N4.8 kmh N 3.0 mph4.8 kmh 29.99 in1015.6 mb 0.00 in0.0 mm 0.00 in0.0 mm 0.35 in8.9 mm
09:14 PM 37.9°F3.3°C 34.7°F1.5°C 88% 3.0 mph N4.8 kmh N 4.0 mph6.4 kmh 29.99 in1015.6 mb 0.00 in0.0 mm 0.00 in0.0 mm 0.35 in8.9 mm
09:16 PM 37.9°F3.3°C 34.7°F1.5°C 88% 2.0 mph NNW3.2 kmh NNW 8.0 mph12.9 kmh 30.00 in1015.9 mb 0.00 in0.0 mm 0.00 in0.0 mm 0.35 in8.9 mm
09:18 PM 37.9°F3.3°C 34.7°F1.5°C 88% 2.0 mph NNW3.2 kmh NNW 2.0 mph3.2 kmh 30.00 in1015.9 mb 0.00 in0.0 mm 0.00 in0.0 mm 0.35 in8.9 mm
09:20 PM 37.9°F3.3°C 34.7°F1.5°C 88% Calm Calm -- 30.00 in1015.9 mb 0.00 in0.0 mm 0.00 in0.0 mm 0.35 in8.9 mm
09:22 PM 37.9°F3.3°C 34.7°F1.5°C 88% 2.0 mph NNW3.2 kmh NNW 4.0 mph6.4 kmh 30.00 in1015.9 mb 0.00 in0.0 mm 0.00 in0.0 mm 0.35 in8.9 mm
09:24 PM 37.9°F3.3°C 34.7°F1.5°C 88% 2.0 mph NNW3.2 kmh NNW 2.0 mph3.2 kmh 30.00 in1015.9 mb 0.00 in0.0 mm 0.00 in0.0 mm 0.35 in8.9 mm
09:26 PM 37.9°F3.3°C 34.7°F1.5°C 88% 1.0 mph NNW1.6 kmh NNW 2.0 mph3.2 kmh 30.00 in1015.9 mb 0.00 in0.0 mm 0.00 in0.0 mm 0.35 in8.9 mm
09:28 PM 37.9°F3.3°C 34.7°F1.5°C 88% Calm Calm -- 30.01 in1016.3 mb 0.00 in0.0 mm 0.00 in0.0 mm 0.35 in8.9 mm
09:30 PM 37.9°F3.3°C 34.7°F1.5°C 88% 2.0 mph NNW3.2 kmh NNW 2.0 mph3.2 kmh 30.01 in1016.3 mb 0.00 in0.0 mm 0.00 in0.0 mm 0.35 in8.9 mm
09:32 PM 37.9°F3.3°C 34.7°F1.5°C 88% Calm Calm -- 30.01 in1016.3 mb 0.00 in0.0 mm 0.00 in0.0 mm 0.35 in8.9 mm
09:34 PM 37.9°F3.3°C 34.7°F1.5°C 88% Calm Calm -- 30.01 in1016.3 mb 0.00 in0.0 mm 0.00 in0.0 mm 0.35 in8.9 mm
09:36 PM 37.9°F3.3°C 34.7°F1.5°C 88% 1.0 mph NNW1.6 kmh NNW 2.0 mph3.2 kmh 30.01 in1016.3 mb 0.00 in0.0 mm 0.00 in0.0 mm 0.35 in8.9 mm
09:38 PM 37.9°F3.3°C 34.7°F1.5°C 88% Calm Calm -- 30.01 in1016.3 mb 0.00 in0.0 mm 0.00 in0.0 mm 0.35 in8.9 mm
09:40 PM 37.9°F3.3°C 34.7°F1.5°C 88% Calm Calm -- 30.01 in1016.3 mb 0.00 in0.0 mm 0.00 in0.0 mm 0.35 in8.9 mm
09:42 PM 37.9°F3.3°C 34.7°F1.5°C 88% Calm Calm -- 30.01 in1016.3 mb 0.00 in0.0 mm 0.00 in0.0 mm 0.35 in8.9 mm
09:44 PM 37.9°F3.3°C 34.7°F1.5°C 88% Calm Calm -- 30.01 in1016.3 mb 0.00 in0.0 mm 0.00 in0.0 mm 0.35 in8.9 mm
09:46 PM 37.9°F3.3°C 34.7°F1.5°C 88% Calm Calm -- 30.01 in1016.3 mb 0.00 in0.0 mm 0.00 in0.0 mm 0.35 in8.9 mm
09:48 PM 37.9°F3.3°C 34.7°F1.5°C 88% Calm Calm -- 30.01 in1016.3 mb 0.00 in0.0 mm 0.00 in0.0 mm 0.35 in8.9 mm
09:50 PM 37.9°F3.3°C 34.7°F1.5°C 88% 1.0 mph N1.6 kmh N 3.0 mph4.8 kmh 30.01 in1016.3 mb 0.00 in0.0 mm 0.00 in0.0 mm 0.35 in8.9 mm
09:52 PM 37.9°F3.3°C 34.7°F1.5°C 88% Calm Calm -- 30.01 in1016.3 mb 0.00 in0.0 mm 0.00 in0.0 mm 0.35 in8.9 mm
09:54 PM 38.0°F3.3°C 34.8°F1.6°C 88% Calm Calm 3.0 mph4.8 kmh 30.01 in1016.3 mb 0.00 in0.0 mm 0.00 in0.0 mm 0.35 in8.9 mm
09:56 PM 38.0°F3.3°C 34.8°F1.6°C 88% Calm Calm -- 30.01 in1016.3 mb 0.00 in0.0 mm 0.00 in0.0 mm 0.35 in8.9 mm
09:58 PM 38.0°F3.3°C 34.8°F1.6°C 88% Calm Calm -- 30.01 in1016.3 mb 0.00 in0.0 mm 0.00 in0.0 mm 0.35 in8.9 mm
10:00 PM 38.0°F3.3°C 34.8°F1.6°C 88% Calm Calm -- 30.01 in1016.3 mb 0.00 in0.0 mm 0.00 in0.0 mm 0.35 in8.9 mm
10:02 PM 38.0°F3.3°C 34.8°F1.6°C 88% Calm Calm 2.0 mph3.2 kmh 30.01 in1016.3 mb 0.00 in0.0 mm 0.00 in0.0 mm 0.35 in8.9 mm
10:04 PM 38.0°F3.3°C 34.8°F1.6°C 88% Calm Calm -- 30.01 in1016.3 mb 0.00 in0.0 mm 0.00 in0.0 mm 0.35 in8.9 mm
10:06 PM 38.0°F3.3°C 34.8°F1.6°C 88% Calm Calm 3.0 mph4.8 kmh 30.01 in1016.3 mb 0.00 in0.0 mm 0.00 in0.0 mm 0.35 in8.9 mm
10:08 PM 38.0°F3.3°C 35.1°F1.7°C 89% 1.0 mph N1.6 kmh N 1.0 mph1.6 kmh 30.01 in1016.3 mb 0.00 in0.0 mm 0.00 in0.0 mm 0.35 in8.9 mm
10:10 PM 38.0°F3.3°C 35.1°F1.7°C 89% 1.0 mph N1.6 kmh N 3.0 mph4.8 kmh 30.01 in1016.3 mb 0.00 in0.0 mm 0.00 in0.0 mm 0.35 in8.9 mm
10:12 PM 38.1°F3.4°C 35.2°F1.8°C 89% Calm Calm -- 30.01 in1016.3 mb 0.00 in0.0 mm 0.00 in0.0 mm 0.35 in8.9 mm
10:14 PM 38.1°F3.4°C 35.2°F1.8°C 89% Calm Calm 3.0 mph4.8 kmh 30.01 in1016.3 mb 0.00 in0.0 mm 0.00 in0.0 mm 0.35 in8.9 mm
10:16 PM 38.1°F3.4°C 34.9°F1.6°C 88% Calm Calm -- 30.01 in1016.3 mb 0.00 in0.0 mm 0.00 in0.0 mm 0.35 in8.9 mm
10:18 PM 38.2°F3.4°C 35.0°F1.7°C 88% Calm Calm -- 30.01 in1016.3 mb 0.00 in0.0 mm 0.00 in0.0 mm 0.35 in8.9 mm
10:20 PM 38.2°F3.4°C 35.0°F1.7°C 88% 1.0 mph N1.6 kmh N 2.0 mph3.2 kmh 30.01 in1016.3 mb 0.00 in0.0 mm 0.00 in0.0 mm 0.35 in8.9 mm
10:22 PM 38.2°F3.4°C 35.0°F1.7°C 88% Calm Calm -- 30.00 in1015.9 mb 0.00 in0.0 mm 0.00 in0.0 mm 0.35 in8.9 mm
10:24 PM 38.2°F3.4°C 35.3°F1.8°C 89% Calm Calm -- 30.00 in1015.9 mb 0.00 in0.0 mm 0.00 in0.0 mm 0.35 in8.9 mm
10:26 PM 38.2°F3.4°C 35.3°F1.8°C 89% 2.0 mph N3.2 kmh N 2.0 mph3.2 kmh 30.00 in1015.9 mb 0.00 in0.0 mm 0.00 in0.0 mm 0.35 in8.9 mm
10:28 PM 38.2°F3.4°C 35.0°F1.7°C 88% Calm Calm -- 30.00 in1015.9 mb 0.00 in0.0 mm 0.00 in0.0 mm 0.35 in8.9 mm
10:30 PM 38.2°F3.4°C 35.0°F1.7°C 88% Calm Calm -- 30.01 in1016.3 mb 0.00 in0.0 mm 0.00 in0.0 mm 0.35 in8.9 mm
10:32 PM 38.2°F3.4°C 35.0°F1.7°C 88% 3.0 mph N4.8 kmh N 3.0 mph4.8 kmh 30.01 in1016.3 mb 0.00 in0.0 mm 0.00 in0.0 mm 0.35 in8.9 mm
10:34 PM 38.3°F3.5°C 35.4°F1.9°C 89% 1.0 mph N1.6 kmh N 1.0 mph1.6 kmh 30.01 in1016.3 mb 0.00 in0.0 mm 0.00 in0.0 mm 0.35 in8.9 mm
10:36 PM 38.3°F3.5°C 35.1°F1.7°C 88% 1.0 mph N1.6 kmh N 2.0 mph3.2 kmh 30.01 in1016.3 mb 0.00 in0.0 mm 0.00 in0.0 mm 0.35 in8.9 mm
10:38 PM 38.3°F3.5°C 35.1°F1.7°C 88% 2.0 mph N3.2 kmh N 2.0 mph3.2 kmh 30.01 in1016.3 mb 0.00 in0.0 mm 0.00 in0.0 mm 0.35 in8.9 mm
10:40 PM 38.3°F3.5°C 35.1°F1.7°C 88% Calm Calm -- 30.01 in1016.3 mb 0.00 in0.0 mm 0.00 in0.0 mm 0.35 in8.9 mm
10:42 PM 38.3°F3.5°C 35.1°F1.7°C 88% Calm Calm -- 30.01 in1016.3 mb 0.00 in0.0 mm 0.00 in0.0 mm 0.35 in8.9 mm
10:44 PM 38.3°F3.5°C 35.1°F1.7°C 88% Calm Calm -- 30.01 in1016.3 mb 0.00 in0.0 mm 0.00 in0.0 mm 0.35 in8.9 mm
10:46 PM 38.3°F3.5°C 35.1°F1.7°C 88% Calm Calm -- 30.01 in1016.3 mb 0.00 in0.0 mm 0.00 in0.0 mm 0.35 in8.9 mm
10:48 PM 38.3°F3.5°C 35.1°F1.7°C 88% Calm Calm -- 30.02 in1016.6 mb 0.00 in0.0 mm 0.00 in0.0 mm 0.35 in8.9 mm
10:50 PM 38.3°F3.5°C 35.1°F1.7°C 88% Calm Calm -- 30.02 in1016.6 mb 0.00 in0.0 mm 0.00 in0.0 mm 0.35 in8.9 mm
10:52 PM 38.3°F3.5°C 35.1°F1.7°C 88% Calm Calm -- 30.02 in1016.6 mb 0.00 in0.0 mm 0.00 in0.0 mm 0.35 in8.9 mm
10:54 PM 38.2°F3.4°C 35.0°F1.7°C 88% Calm Calm 1.0 mph1.6 kmh 30.02 in1016.6 mb 0.00 in0.0 mm 0.00 in0.0 mm 0.35 in8.9 mm
10:56 PM 38.2°F3.4°C 35.0°F1.7°C 88% Calm Calm -- 30.02 in1016.6 mb 0.00 in0.0 mm 0.00 in0.0 mm 0.35 in8.9 mm
10:58 PM 38.2°F3.4°C 35.0°F1.7°C 88% Calm Calm -- 30.01 in1016.3 mb 0.00 in0.0 mm 0.00 in0.0 mm 0.35 in8.9 mm
11:00 PM 38.2°F3.4°C 35.0°F1.7°C 88% Calm Calm -- 30.01 in1016.3 mb 0.00 in0.0 mm 0.00 in0.0 mm 0.35 in8.9 mm
11:02 PM 38.2°F3.4°C 35.0°F1.7°C 88% Calm Calm -- 30.01 in1016.3 mb 0.00 in0.0 mm 0.00 in0.0 mm 0.35 in8.9 mm
11:04 PM 38.2°F3.4°C 35.0°F1.7°C 88% Calm Calm -- 30.01 in1016.3 mb 0.00 in0.0 mm 0.00 in0.0 mm 0.35 in8.9 mm
11:06 PM 38.2°F3.4°C 35.0°F1.7°C 88% Calm Calm -- 30.01 in1016.3 mb 0.00 in0.0 mm 0.00 in0.0 mm 0.35 in8.9 mm
11:08 PM 38.2°F3.4°C 35.0°F1.7°C 88% Calm Calm -- 30.01 in1016.3 mb 0.00 in0.0 mm 0.00 in0.0 mm 0.35 in8.9 mm
11:10 PM 38.2°F3.4°C 35.0°F1.7°C 88% Calm Calm -- 30.01 in1016.3 mb 0.00 in0.0 mm 0.00 in0.0 mm 0.35 in8.9 mm
11:12 PM 38.2°F3.4°C 35.0°F1.7°C 88% 1.0 mph N1.6 kmh N 1.0 mph1.6 kmh 30.01 in1016.3 mb 0.00 in0.0 mm 0.00 in0.0 mm 0.35 in8.9 mm
11:14 PM 38.2°F3.4°C 35.0°F1.7°C 88% Calm Calm -- 30.01 in1016.3 mb 0.00 in0.0 mm 0.00 in0.0 mm 0.35 in8.9 mm
11:16 PM 38.2°F3.4°C 35.0°F1.7°C 88% Calm Calm -- 30.01 in1016.3 mb 0.00 in0.0 mm 0.00 in0.0 mm 0.35 in8.9 mm
11:18 PM 38.1°F3.4°C 34.9°F1.6°C 88% Calm Calm -- 30.01 in1016.3 mb 0.00 in0.0 mm 0.00 in0.0 mm 0.35 in8.9 mm
11:20 PM 38.1°F3.4°C 34.9°F1.6°C 88% Calm Calm -- 30.01 in1016.3 mb 0.00 in0.0 mm 0.00 in0.0 mm 0.35 in8.9 mm
11:22 PM 38.1°F3.4°C 34.9°F1.6°C 88% Calm Calm -- 30.01 in1016.3 mb 0.00 in0.0 mm 0.00 in0.0 mm 0.35 in8.9 mm
11:24 PM 38.1°F3.4°C 34.9°F1.6°C 88% Calm Calm -- 30.01 in1016.3 mb 0.00 in0.0 mm 0.00 in0.0 mm 0.35 in8.9 mm
11:26 PM 38.1°F3.4°C 34.9°F1.6°C 88% Calm Calm -- 30.01 in1016.3 mb 0.00 in0.0 mm 0.00 in0.0 mm 0.35 in8.9 mm
11:28 PM 38.1°F3.4°C 34.9°F1.6°C 88% Calm Calm -- 30.01 in1016.3 mb 0.00 in0.0 mm 0.00 in0.0 mm 0.35 in8.9 mm
11:30 PM 38.1°F3.4°C 34.9°F1.6°C 88% Calm Calm -- 30.01 in1016.3 mb 0.00 in0.0 mm 0.00 in0.0 mm 0.35 in8.9 mm
11:32 PM 38.0°F3.3°C 34.8°F1.6°C 88% Calm Calm -- 30.01 in1016.3 mb 0.00 in0.0 mm 0.00 in0.0 mm 0.35 in8.9 mm
11:34 PM 38.0°F3.3°C 34.8°F1.6°C 88% Calm Calm -- 30.01 in1016.3 mb 0.00 in0.0 mm 0.00 in0.0 mm 0.35 in8.9 mm
11:36 PM 38.0°F3.3°C 34.8°F1.6°C 88% Calm Calm -- 30.01 in1016.3 mb 0.00 in0.0 mm 0.00 in0.0 mm 0.35 in8.9 mm
11:38 PM 38.0°F3.3°C 35.1°F1.7°C 89% Calm Calm -- 30.01 in1016.3 mb 0.00 in0.0 mm 0.00 in0.0 mm 0.35 in8.9 mm
11:40 PM 38.0°F3.3°C 35.1°F1.7°C 89% Calm Calm -- 30.01 in1016.3 mb 0.00 in0.0 mm 0.00 in0.0 mm 0.35 in8.9 mm
11:42 PM 38.0°F3.3°C 35.1°F1.7°C 89% Calm Calm -- 30.01 in1016.3 mb 0.00 in0.0 mm 0.00 in0.0 mm 0.35 in8.9 mm
11:44 PM 38.0°F3.3°C 35.1°F1.7°C 89% Calm Calm -- 30.01 in1016.3 mb 0.00 in0.0 mm 0.00 in0.0 mm 0.35 in8.9 mm
11:46 PM 38.0°F3.3°C 35.1°F1.7°C 89% Calm Calm -- 30.02 in1016.6 mb 0.00 in0.0 mm 0.00 in0.0 mm 0.35 in8.9 mm
11:48 PM 38.0°F3.3°C 35.1°F1.7°C 89% Calm Calm -- 30.01 in1016.3 mb 0.00 in0.0 mm 0.00 in0.0 mm 0.35 in8.9 mm
11:50 PM 38.0°F3.3°C 35.1°F1.7°C 89% Calm Calm -- 30.02 in1016.6 mb 0.00 in0.0 mm 0.00 in0.0 mm 0.35 in8.9 mm
11:52 PM 38.0°F3.3°C 35.1°F1.7°C 89% Calm Calm -- 30.02 in1016.6 mb 0.00 in0.0 mm 0.00 in0.0 mm 0.35 in8.9 mm
11:54 PM 38.0°F3.3°C 35.1°F1.7°C 89% Calm Calm -- 30.02 in1016.6 mb 0.00 in0.0 mm 0.00 in0.0 mm 0.35 in8.9 mm
11:56 PM 38.0°F3.3°C 35.1°F1.7°C 89% Calm Calm -- 30.02 in1016.6 mb 0.00 in0.0 mm 0.00 in0.0 mm 0.35 in8.9 mm
11:58 PM 38.0°F3.3°C 35.1°F1.7°C 89% Calm Calm -- 30.02 in1016.6 mb 0.00 in0.0 mm 0.00 in0.0 mm 0.35 in8.9 mm